Time,TemperatureF,DewpointF,PressureIn,WindDirection,WindDirectionDegrees,WindSpeedMPH,WindSpeedGustMPH,Humidity,HourlyPrecipIn,Conditions,Clouds,dailyrainin,SoftwareType,DateUTC
2013-10-08 00:04:00,45.4,44.3,30.16,N/A,-737280,0.0,-999.0,96,0.00,,,0.00,Wunderground v.1.15,2013-10-08 04:04:00,
2013-10-08 00:09:00,45.4,44.3,30.16,N/A,-737280,0.0,-999.0,96,0.00,,,0.00,Wunderground v.1.15,2013-10-08 04:09:00,
2013-10-08 00:14:00,45.4,44.3,30.16,N/A,-737280,0.0,-999.0,96,0.00,,,0.00,Wunderground v.1.15,2013-10-08 04:14:00,
2013-10-08 00:19:00,45.4,44.3,30.16,N/A,-737280,0.0,-999.0,96,0.00,,,0.00,Wunderground v.1.15,2013-10-08 04:19:00,
2013-10-08 00:24:00,45.4,44.3,30.16,N/A,-737280,0.0,-999.0,96,0.00,,,0.00,Wunderground v.1.15,2013-10-08 04:24:00,
2013-10-08 00:29:00,45.4,44.3,30.16,N/A,-737280,0.0,-999.0,96,0.00,,,0.00,Wunderground v.1.15,2013-10-08 04:29:00,
2013-10-08 00:34:00,45.4,44.3,30.16,N/A,-737280,0.0,-999.0,96,0.00,,,0.00,Wunderground v.1.15,2013-10-08 04:34:00,
2013-10-08 00:39:00,45.4,44.3,30.16,N/A,-737280,0.0,-999.0,96,0.00,,,0.00,Wunderground v.1.15,2013-10-08 04:39:00,
2013-10-08 00:44:00,45.4,44.3,30.16,N/A,-737280,0.0,-999.0,96,0.00,,,0.00,Wunderground v.1.15,2013-10-08 04:44:00,
2013-10-08 00:49:00,44.4,43.1,30.16,N/A,-737280,0.0,-999.0,95,0.00,,,0.00,Wunderground v.1.15,2013-10-08 04:49:00,
2013-10-08 00:54:00,44.4,43.1,30.16,N/A,-737280,0.0,-999.0,95,0.00,,,0.00,Wunderground v.1.15,2013-10-08 04:54:00,
2013-10-08 00:59:00,44.4,43.1,30.16,N/A,-737280,0.0,-999.0,95,0.00,,,0.00,Wunderground v.1.15,2013-10-08 04:59:00,
2013-10-08 01:06:00,44.3,43.0,30.17,NW,311,0.0,0.0,95,0.00,,,0.00,Wunderground v.1.15,2013-10-08 05:06:00,
2013-10-08 01:10:00,44.1,42.8,30.17,NW,312,0.0,0.0,95,0.00,,,0.00,Wunderground v.1.15,2013-10-08 05:10:00,
2013-10-08 01:11:00,44.1,42.8,30.17,NW,311,0.0,0.0,95,0.00,,,0.00,Wunderground v.1.15,2013-10-08 05:11:00,
2013-10-08 01:12:00,44.0,42.7,30.17,NW,312,0.0,0.0,95,0.00,,,0.00,Wunderground v.1.15,2013-10-08 05:12:00,
2013-10-08 01:13:00,44.0,42.7,30.17,NW,312,0.0,0.0,95,0.00,,,0.00,Wunderground v.1.15,2013-10-08 05:13:00,
2013-10-08 01:16:00,43.9,42.6,30.17,NW,311,0.0,0.0,95,0.00,,,0.00,Wunderground v.1.15,2013-10-08 05:16:00,
2013-10-08 01:17:00,43.9,42.6,30.17,NW,312,0.0,0.0,95,0.00,,,0.00,Wunderground v.1.15,2013-10-08 05:17:00,
2013-10-08 01:20:00,43.9,42.6,30.17,NW,311,0.0,0.0,95,0.00,,,0.00,Wunderground v.1.15,2013-10-08 05:20:00,
2013-10-08 01:21:00,43.9,42.8,30.17,NW,311,0.0,0.0,96,0.00,,,0.00,Wunderground v.1.15,2013-10-08 05:21:00,
2013-10-08 01:23:00,43.9,42.8,30.17,NW,312,0.0,0.0,96,0.00,,,0.00,Wunderground v.1.15,2013-10-08 05:23:00,
2013-10-08 01:26:00,43.8,42.7,30.17,NW,312,0.0,0.0,96,0.00,,,0.00,Wunderground v.1.15,2013-10-08 05:26:00,
2013-10-08 01:27:00,43.8,42.5,30.17,NW,312,0.0,0.0,95,0.00,,,0.01,Wunderground v.1.15,2013-10-08 05:27:00,
2013-10-08 01:28:00,43.7,42.4,30.17,NW,311,0.0,0.0,95,0.00,,,0.01,Wunderground v.1.15,2013-10-08 05:28:00,
2013-10-08 01:29:00,43.7,42.4,30.17,NW,312,0.0,0.0,95,0.00,,,0.01,Wunderground v.1.15,2013-10-08 05:29:00,
2013-10-08 01:33:00,43.5,42.4,30.17,NW,312,0.0,0.0,96,0.00,,,0.01,Wunderground v.1.15,2013-10-08 05:33:00,
2013-10-08 01:34:00,43.5,42.4,30.17,NW,312,0.0,0.0,96,0.00,,,0.01,Wunderground v.1.15,2013-10-08 05:34:00,
2013-10-08 01:35:00,43.5,42.4,30.17,NW,312,0.0,0.0,96,0.00,,,0.01,Wunderground v.1.15,2013-10-08 05:35:00,
2013-10-08 01:38:00,43.4,42.3,30.17,NW,311,0.0,0.0,96,0.00,,,0.01,Wunderground v.1.15,2013-10-08 05:38:00,
2013-10-08 01:40:00,43.4,42.3,30.18,NW,311,0.0,0.0,96,0.00,,,0.01,Wunderground v.1.15,2013-10-08 05:40:00,
2013-10-08 01:41:00,43.5,42.4,30.18,NW,312,0.0,0.0,96,0.00,,,0.01,Wunderground v.1.15,2013-10-08 05:41:00,
2013-10-08 01:42:00,43.5,42.4,30.18,NW,311,0.0,0.0,96,0.00,,,0.01,Wunderground v.1.15,2013-10-08 05:42:00,
2013-10-08 01:45:00,43.5,42.4,30.18,NW,311,0.0,0.0,96,0.00,,,0.01,Wunderground v.1.15,2013-10-08 05:45:00,
2013-10-08 01:47:00,43.4,42.3,30.18,NW,311,0.0,0.0,96,0.00,,,0.01,Wunderground v.1.15,2013-10-08 05:47:00,
2013-10-08 01:48:00,43.4,42.3,30.18,NW,311,0.0,0.0,96,0.00,,,0.01,Wunderground v.1.15,2013-10-08 05:48:00,
2013-10-08 01:49:00,43.4,42.3,30.18,NW,311,0.0,0.0,96,0.00,,,0.01,Wunderground v.1.15,2013-10-08 05:49:00,
2013-10-08 01:52:00,43.4,42.3,30.18,NW,311,0.0,0.0,96,0.00,,,0.01,Wunderground v.1.15,2013-10-08 05:52:00,
2013-10-08 01:53:00,43.3,42.2,30.18,NW,312,0.0,0.0,96,0.00,,,0.01,Wunderground v.1.15,2013-10-08 05:53:00,
2013-10-08 01:56:00,43.3,42.2,30.18,NW,311,0.0,0.0,96,0.00,,,0.01,Wunderground v.1.15,2013-10-08 05:56:00,
2013-10-08 01:57:00,43.3,42.2,30.18,NW,311,0.0,0.0,96,0.00,,,0.01,Wunderground v.1.15,2013-10-08 05:57:00,
2013-10-08 02:00:00,43.2,42.1,30.18,NW,312,0.0,0.0,96,0.00,,,0.01,Wunderground v.1.15,2013-10-08 06:00:00,
2013-10-08 02:01:00,43.2,42.1,30.18,NW,312,0.0,0.0,96,0.00,,,0.01,Wunderground v.1.15,2013-10-08 06:01:00,
2013-10-08 02:02:00,43.2,42.1,30.18,NW,312,0.0,0.0,96,0.00,,,0.01,Wunderground v.1.15,2013-10-08 06:02:00,
2013-10-08 02:05:00,43.2,42.1,30.18,NW,311,0.0,0.0,96,0.00,,,0.01,Wunderground v.1.15,2013-10-08 06:05:00,
2013-10-08 02:06:00,43.3,42.2,30.18,NW,312,0.0,0.0,96,0.00,,,0.01,Wunderground v.1.15,2013-10-08 06:06:00,
2013-10-08 02:07:00,43.3,42.2,30.18,NW,312,0.0,0.0,96,0.00,,,0.01,Wunderground v.1.15,2013-10-08 06:07:00,
2013-10-08 02:10:00,43.2,42.1,30.18,NW,311,0.0,0.0,96,0.00,,,0.01,Wunderground v.1.15,2013-10-08 06:10:00,
2013-10-08 02:11:00,43.2,42.1,30.18,NW,311,0.0,0.0,96,0.00,,,0.01,Wunderground v.1.15,2013-10-08 06:11:00,
2013-10-08 02:12:00,43.2,42.1,30.18,NW,312,0.0,0.0,96,0.00,,,0.01,Wunderground v.1.15,2013-10-08 06:12:00,
2013-10-08 02:15:00,43.3,42.5,30.18,NW,311,0.0,0.0,97,0.00,,,0.01,Wunderground v.1.15,2013-10-08 06:15:00,
2013-10-08 02:16:00,43.3,42.5,30.18,NW,311,0.0,0.0,97,0.00,,,0.01,Wunderground v.1.15,2013-10-08 06:16:00,
2013-10-08 02:17:00,43.3,42.5,30.18,NW,311,0.0,0.0,97,0.00,,,0.01,Wunderground v.1.15,2013-10-08 06:17:00,
2013-10-08 02:18:00,43.3,42.5,30.18,NW,311,0.0,0.0,97,0.00,,,0.01,Wunderground v.1.15,2013-10-08 06:18:00,
2013-10-08 02:20:00,43.4,42.6,30.18,NW,311,0.0,0.0,97,0.00,,,0.01,Wunderground v.1.15,2013-10-08 06:20:00,
2013-10-08 02:21:00,43.4,42.6,30.18,NW,311,0.0,0.0,97,0.00,,,0.01,Wunderground v.1.15,2013-10-08 06:21:00,
2013-10-08 02:22:00,43.4,42.6,30.18,NW,311,0.0,0.0,97,0.00,,,0.01,Wunderground v.1.15,2013-10-08 06:22:00,
2013-10-08 02:23:00,43.4,42.6,30.18,NW,311,0.0,0.0,97,0.00,,,0.01,Wunderground v.1.15,2013-10-08 06:23:00,
2013-10-08 02:25:00,43.4,42.6,30.18,NW,311,0.0,0.0,97,0.00,,,0.01,Wunderground v.1.15,2013-10-08 06:25:00,
2013-10-08 02:26:00,43.4,42.6,30.18,NW,312,0.0,0.0,97,0.00,,,0.01,Wunderground v.1.15,2013-10-08 06:26:00,
2013-10-08 02:27:00,43.4,42.6,30.18,NW,312,0.0,0.0,97,0.00,,,0.01,Wunderground v.1.15,2013-10-08 06:27:00,
2013-10-08 02:28:00,43.4,42.6,30.18,NW,312,0.0,0.0,97,0.00,,,0.01,Wunderground v.1.15,2013-10-08 06:28:00,
2013-10-08 02:31:00,43.5,42.7,30.19,NW,312,0.0,0.0,97,0.00,,,0.01,Wunderground v.1.15,2013-10-08 06:31:00,
2013-10-08 02:32:00,43.4,42.6,30.19,NW,311,0.0,0.0,97,0.00,,,0.01,Wunderground v.1.15,2013-10-08 06:32:00,
2013-10-08 02:33:00,43.4,42.6,30.19,NW,312,0.0,0.0,97,0.00,,,0.01,Wunderground v.1.15,2013-10-08 06:33:00,
2013-10-08 02:36:00,43.4,42.6,30.19,NW,312,0.0,0.0,97,0.00,,,0.01,Wunderground v.1.15,2013-10-08 06:36:00,
2013-10-08 02:37:00,43.4,42.6,30.19,NW,311,0.0,0.0,97,0.00,,,0.01,Wunderground v.1.15,2013-10-08 06:37:00,
2013-10-08 02:38:00,43.3,42.5,30.18,NW,311,0.0,0.0,97,0.00,,,0.01,Wunderground v.1.15,2013-10-08 06:38:00,
2013-10-08 02:42:00,43.3,42.5,30.19,NW,311,0.0,0.0,97,0.00,,,0.01,Wunderground v.1.15,2013-10-08 06:42:00,
2013-10-08 02:44:00,43.2,42.4,30.19,NW,311,0.0,0.0,97,0.00,,,0.01,Wunderground v.1.15,2013-10-08 06:44:00,
2013-10-08 02:47:00,43.0,42.2,30.19,NW,311,0.0,0.0,97,0.00,,,0.01,Wunderground v.1.15,2013-10-08 06:47:00,
2013-10-08 02:48:00,43.0,42.2,30.19,NW,311,0.0,0.0,97,0.00,,,0.01,Wunderground v.1.15,2013-10-08 06:48:00,
2013-10-08 02:49:00,43.0,42.2,30.19,NW,312,0.0,0.0,97,0.00,,,0.01,Wunderground v.1.15,2013-10-08 06:49:00,
2013-10-08 02:50:00,42.9,42.1,30.19,NW,312,0.0,0.0,97,0.00,,,0.01,Wunderground v.1.15,2013-10-08 06:50:00,
2013-10-08 02:52:00,42.9,42.1,30.19,NW,312,0.0,0.0,97,0.00,,,0.01,Wunderground v.1.15,2013-10-08 06:52:00,
2013-10-08 02:53:00,42.9,42.1,30.19,NW,311,0.0,0.0,97,0.00,,,0.01,Wunderground v.1.15,2013-10-08 06:53:00,
2013-10-08 02:54:00,42.8,42.0,30.19,NW,311,0.0,0.0,97,0.00,,,0.01,Wunderground v.1.15,2013-10-08 06:54:00,
2013-10-08 02:55:00,42.8,42.0,30.19,NW,312,0.0,0.0,97,0.00,,,0.01,Wunderground v.1.15,2013-10-08 06:55:00,
2013-10-08 02:56:00,42.8,42.0,30.19,NW,311,0.0,0.0,97,0.00,,,0.01,Wunderground v.1.15,2013-10-08 06:56:00,
2013-10-08 02:57:00,42.7,41.9,30.19,NW,311,0.0,0.0,97,0.00,,,0.01,Wunderground v.1.15,2013-10-08 06:57:00,
2013-10-08 02:58:00,42.7,41.9,30.19,NW,312,0.0,0.0,97,0.00,,,0.01,Wunderground v.1.15,2013-10-08 06:58:00,
2013-10-08 02:59:00,42.7,41.9,30.19,NW,311,0.0,0.0,97,0.00,,,0.01,Wunderground v.1.15,2013-10-08 06:59:00,
2013-10-08 03:01:00,42.7,41.9,30.19,NW,312,0.0,0.0,97,0.00,,,0.01,Wunderground v.1.15,2013-10-08 07:01:00,
2013-10-08 03:02:00,42.6,41.8,30.19,NW,311,0.0,0.0,97,0.00,,,0.01,Wunderground v.1.15,2013-10-08 07:02:00,
2013-10-08 03:03:00,42.6,41.8,30.19,NW,312,0.0,0.0,97,0.00,,,0.01,Wunderground v.1.15,2013-10-08 07:03:00,
2013-10-08 03:05:00,42.5,41.7,30.19,NW,311,0.0,0.0,97,0.00,,,0.01,Wunderground v.1.15,2013-10-08 07:05:00,
2013-10-08 03:06:00,42.5,41.7,30.19,NW,312,0.0,0.0,97,0.00,,,0.01,Wunderground v.1.15,2013-10-08 07:06:00,
2013-10-08 03:07:00,42.6,41.8,30.19,NW,312,0.0,0.0,97,0.00,,,0.01,Wunderground v.1.15,2013-10-08 07:07:00,
2013-10-08 03:08:00,42.6,41.8,30.19,NW,311,0.0,0.0,97,0.00,,,0.01,Wunderground v.1.15,2013-10-08 07:08:00,
2013-10-08 03:09:00,42.6,41.8,30.19,NW,311,0.0,0.0,97,0.00,,,0.01,Wunderground v.1.15,2013-10-08 07:09:00,
2013-10-08 03:11:00,42.5,41.7,30.19,NW,312,0.0,0.0,97,0.00,,,0.01,Wunderground v.1.15,2013-10-08 07:11:00,
2013-10-08 03:12:00,42.5,41.7,30.19,NW,312,0.0,0.0,97,0.00,,,0.01,Wunderground v.1.15,2013-10-08 07:12:00,
2013-10-08 03:13:00,42.5,41.7,30.19,NW,311,0.0,0.0,97,0.00,,,0.01,Wunderground v.1.15,2013-10-08 07:13:00,
2013-10-08 03:14:00,42.4,41.6,30.19,NW,311,0.0,0.0,97,0.00,,,0.01,Wunderground v.1.15,2013-10-08 07:14:00,
2013-10-08 03:16:00,42.4,41.6,30.19,NW,311,0.0,0.0,97,0.00,,,0.01,Wunderground v.1.15,2013-10-08 07:16:00,
2013-10-08 03:17:00,42.4,41.6,30.19,NW,312,0.0,0.0,97,0.00,,,0.01,Wunderground v.1.15,2013-10-08 07:17:00,
2013-10-08 03:18:00,42.3,41.5,30.19,NW,312,0.0,0.0,97,0.00,,,0.01,Wunderground v.1.15,2013-10-08 07:18:00,
2013-10-08 03:19:00,42.3,41.5,30.19,NW,311,0.0,0.0,97,0.00,,,0.01,Wunderground v.1.15,2013-10-08 07:19:00,
2013-10-08 03:22:00,42.3,41.5,30.20,NW,312,0.0,0.0,97,0.00,,,0.01,Wunderground v.1.15,2013-10-08 07:22:00,
2013-10-08 03:23:00,42.3,41.5,30.19,NW,312,0.0,0.0,97,0.00,,,0.01,Wunderground v.1.15,2013-10-08 07:23:00,
2013-10-08 03:24:00,42.3,41.5,30.20,NW,311,0.0,0.0,97,0.00,,,0.01,Wunderground v.1.15,2013-10-08 07:24:00,
2013-10-08 03:27:00,42.3,41.5,30.19,NW,312,0.0,0.0,97,0.00,,,0.01,Wunderground v.1.15,2013-10-08 07:27:00,
2013-10-08 03:28:00,42.3,41.5,30.19,NW,311,0.0,0.0,97,0.00,,,0.01,Wunderground v.1.15,2013-10-08 07:28:00,
2013-10-08 03:29:00,42.3,41.5,30.19,NW,312,0.0,0.0,97,0.00,,,0.01,Wunderground v.1.15,2013-10-08 07:29:00,
2013-10-08 03:32:00,42.2,41.4,30.19,NW,312,0.0,0.0,97,0.00,,,0.01,Wunderground v.1.15,2013-10-08 07:32:00,
2013-10-08 03:33:00,42.2,41.4,30.19,NW,312,0.0,0.0,97,0.00,,,0.01,Wunderground v.1.15,2013-10-08 07:33:00,
2013-10-08 03:34:00,42.2,41.4,30.20,NW,311,0.0,0.0,97,0.00,,,0.01,Wunderground v.1.15,2013-10-08 07:34:00,
2013-10-08 03:35:00,42.2,41.4,30.20,NW,311,0.0,0.0,97,0.00,,,0.01,Wunderground v.1.15,2013-10-08 07:35:00,
2013-10-08 03:38:00,42.0,41.2,30.20,NW,312,0.0,0.0,97,0.00,,,0.01,Wunderground v.1.15,2013-10-08 07:38:00,
2013-10-08 03:39:00,42.0,41.2,30.20,NW,311,0.0,0.0,97,0.00,,,0.01,Wunderground v.1.15,2013-10-08 07:39:00,
2013-10-08 03:40:00,42.1,41.3,30.20,NW,312,0.0,0.0,97,0.00,,,0.01,Wunderground v.1.15,2013-10-08 07:40:00,
2013-10-08 03:43:00,42.0,41.2,30.20,NW,311,0.0,0.0,97,0.00,,,0.01,Wunderground v.1.15,2013-10-08 07:43:00,
2013-10-08 03:44:00,42.0,41.2,30.20,NW,312,0.0,0.0,97,0.00,,,0.01,Wunderground v.1.15,2013-10-08 07:44:00,
2013-10-08 03:46:00,42.0,41.2,30.20,NW,312,0.0,0.0,97,0.00,,,0.01,Wunderground v.1.15,2013-10-08 07:46:00,
2013-10-08 03:48:00,42.0,41.2,30.20,NW,311,0.0,0.0,97,0.00,,,0.01,Wunderground v.1.15,2013-10-08 07:48:00,
2013-10-08 03:49:00,42.0,41.2,30.20,NW,312,0.0,0.0,97,0.00,,,0.01,Wunderground v.1.15,2013-10-08 07:49:00,
2013-10-08 03:52:00,42.0,41.2,30.21,NW,312,0.0,0.0,97,0.00,,,0.01,Wunderground v.1.15,2013-10-08 07:52:00,
2013-10-08 03:54:00,41.9,41.1,30.21,NW,312,0.0,0.0,97,0.00,,,0.01,Wunderground v.1.15,2013-10-08 07:54:00,
2013-10-08 03:56:00,41.8,41.0,30.21,NW,312,0.0,0.0,97,0.00,,,0.01,Wunderground v.1.15,2013-10-08 07:56:00,
2013-10-08 03:57:00,41.8,41.0,30.21,NW,311,0.0,0.0,97,0.00,,,0.01,Wunderground v.1.15,2013-10-08 07:57:00,
2013-10-08 03:59:00,41.7,40.9,30.21,NW,311,0.0,0.0,97,0.00,,,0.01,Wunderground v.1.15,2013-10-08 07:59:00,
2013-10-08 04:01:00,41.7,40.9,30.21,NW,312,0.0,0.0,97,0.00,,,0.01,Wunderground v.1.15,2013-10-08 08:01:00,
2013-10-08 04:03:00,41.7,40.9,30.21,NW,312,0.0,0.0,97,0.00,,,0.01,Wunderground v.1.15,2013-10-08 08:03:00,
2013-10-08 04:04:00,41.7,40.9,30.21,NW,311,0.0,0.0,97,0.00,,,0.01,Wunderground v.1.15,2013-10-08 08:04:00,
2013-10-08 04:05:00,41.6,40.8,30.21,NW,312,0.0,0.0,97,0.00,,,0.01,Wunderground v.1.15,2013-10-08 08:05:00,
2013-10-08 04:07:00,41.6,40.8,30.21,NW,312,0.0,0.0,97,0.00,,,0.01,Wunderground v.1.15,2013-10-08 08:07:00,
2013-10-08 04:08:00,41.6,40.8,30.21,NW,311,0.0,0.0,97,0.00,,,0.01,Wunderground v.1.15,2013-10-08 08:08:00,
2013-10-08 04:09:00,41.5,40.7,30.21,NW,311,0.0,0.0,97,0.00,,,0.01,Wunderground v.1.15,2013-10-08 08:09:00,
2013-10-08 04:11:00,41.4,40.6,30.21,NW,312,0.0,0.0,97,0.00,,,0.01,Wunderground v.1.15,2013-10-08 08:11:00,
2013-10-08 04:12:00,41.4,40.6,30.21,NW,312,0.0,0.0,97,0.00,,,0.01,Wunderground v.1.15,2013-10-08 08:12:00,
2013-10-08 04:13:00,41.4,40.6,30.21,NW,311,0.0,0.0,97,0.00,,,0.01,Wunderground v.1.15,2013-10-08 08:13:00,
2013-10-08 04:14:00,41.3,40.5,30.21,NW,312,0.0,0.0,97,0.00,,,0.01,Wunderground v.1.15,2013-10-08 08:14:00,
2013-10-08 04:15:00,41.3,40.5,30.21,NW,312,0.0,0.0,97,0.00,,,0.01,Wunderground v.1.15,2013-10-08 08:15:00,
2013-10-08 04:17:00,41.3,40.5,30.21,NW,312,0.0,0.0,97,0.00,,,0.01,Wunderground v.1.15,2013-10-08 08:17:00,
2013-10-08 04:18:00,41.2,40.4,30.21,NW,311,0.0,0.0,97,0.00,,,0.01,Wunderground v.1.15,2013-10-08 08:18:00,
2013-10-08 04:19:00,41.2,40.4,30.21,NW,312,0.0,0.0,97,0.00,,,0.01,Wunderground v.1.15,2013-10-08 08:19:00,
2013-10-08 04:20:00,41.2,40.4,30.21,NW,312,0.0,0.0,97,0.00,,,0.01,Wunderground v.1.15,2013-10-08 08:20:00,
2013-10-08 04:22:00,41.1,40.3,30.21,NW,312,0.0,0.0,97,0.00,,,0.01,Wunderground v.1.15,2013-10-08 08:22:00,
2013-10-08 04:23:00,41.1,40.3,30.21,NW,311,0.0,0.0,97,0.00,,,0.01,Wunderground v.1.15,2013-10-08 08:23:00,
2013-10-08 04:24:00,41.1,40.3,30.22,NW,311,0.0,0.0,97,0.00,,,0.01,Wunderground v.1.15,2013-10-08 08:24:00,
2013-10-08 04:25:00,41.0,40.2,30.22,NW,312,0.0,0.0,97,0.00,,,0.01,Wunderground v.1.15,2013-10-08 08:25:00,
2013-10-08 04:27:00,41.0,40.2,30.21,NW,312,0.0,0.0,97,0.00,,,0.01,Wunderground v.1.15,2013-10-08 08:27:00,
2013-10-08 04:28:00,40.9,40.1,30.22,NW,312,0.0,0.0,97,0.00,,,0.01,Wunderground v.1.15,2013-10-08 08:28:00,
2013-10-08 04:30:00,40.9,40.1,30.22,NW,312,0.0,0.0,97,0.00,,,0.01,Wunderground v.1.15,2013-10-08 08:30:00,
2013-10-08 04:33:00,41.0,40.2,30.22,NW,311,0.0,0.0,97,0.00,,,0.01,Wunderground v.1.15,2013-10-08 08:33:00,
2013-10-08 04:34:00,41.0,40.5,30.22,NW,312,0.0,0.0,98,0.00,,,0.01,Wunderground v.1.15,2013-10-08 08:34:00,
2013-10-08 04:35:00,41.1,40.6,30.22,NW,312,0.0,0.0,98,0.00,,,0.01,Wunderground v.1.15,2013-10-08 08:35:00,
2013-10-08 04:38:00,41.1,40.6,30.22,NW,311,0.0,0.0,98,0.00,,,0.01,Wunderground v.1.15,2013-10-08 08:38:00,
2013-10-08 04:39:00,41.1,40.6,30.22,NW,312,0.0,0.0,98,0.00,,,0.01,Wunderground v.1.15,2013-10-08 08:39:00,
2013-10-08 04:40:00,41.2,40.7,30.22,NW,312,0.0,0.0,98,0.00,,,0.01,Wunderground v.1.15,2013-10-08 08:40:00,
2013-10-08 04:41:00,41.2,40.7,30.22,NW,311,0.0,0.0,98,0.00,,,0.01,Wunderground v.1.15,2013-10-08 08:41:00,
2013-10-08 04:44:00,41.3,40.8,30.22,NW,312,0.0,0.0,98,0.00,,,0.01,Wunderground v.1.15,2013-10-08 08:44:00,
2013-10-08 04:45:00,41.3,40.8,30.22,NW,311,0.0,0.0,98,0.00,,,0.01,Wunderground v.1.15,2013-10-08 08:45:00,
2013-10-08 04:46:00,41.3,40.8,30.22,NW,311,0.0,0.0,98,0.00,,,0.01,Wunderground v.1.15,2013-10-08 08:46:00,
2013-10-08 04:49:00,41.3,40.8,30.22,NW,312,0.0,0.0,98,0.00,,,0.01,Wunderground v.1.15,2013-10-08 08:49:00,
2013-10-08 04:50:00,41.3,40.8,30.22,NW,312,0.0,0.0,98,0.00,,,0.01,Wunderground v.1.15,2013-10-08 08:50:00,
2013-10-08 04:51:00,41.3,40.8,30.22,NW,311,0.0,0.0,98,0.00,,,0.01,Wunderground v.1.15,2013-10-08 08:51:00,
2013-10-08 04:52:00,41.3,40.8,30.22,NW,311,0.0,0.0,98,0.00,,,0.01,Wunderground v.1.15,2013-10-08 08:52:00,
2013-10-08 04:54:00,41.3,40.8,30.23,NW,311,0.0,0.0,98,0.00,,,0.01,Wunderground v.1.15,2013-10-08 08:54:00,
2013-10-08 04:55:00,41.3,40.8,30.23,NW,311,0.0,0.0,98,0.00,,,0.01,Wunderground v.1.15,2013-10-08 08:55:00,
2013-10-08 04:57:00,41.4,40.9,30.23,NW,311,0.0,0.0,98,0.00,,,0.01,Wunderground v.1.15,2013-10-08 08:57:00,
2013-10-08 05:00:00,41.5,41.0,30.23,NW,311,0.0,0.0,98,0.00,,,0.01,Wunderground v.1.15,2013-10-08 09:00:00,
2013-10-08 05:01:00,41.5,41.0,30.23,NW,311,0.0,0.0,98,0.00,,,0.01,Wunderground v.1.15,2013-10-08 09:01:00,
2013-10-08 05:02:00,41.5,41.0,30.23,NW,311,0.0,0.0,98,0.00,,,0.01,Wunderground v.1.15,2013-10-08 09:02:00,
2013-10-08 05:05:00,41.6,41.1,30.23,NW,312,0.0,0.0,98,0.00,,,0.01,Wunderground v.1.15,2013-10-08 09:05:00,
2013-10-08 05:06:00,41.6,41.1,30.23,NW,312,0.0,0.0,98,0.00,,,0.01,Wunderground v.1.15,2013-10-08 09:06:00,
2013-10-08 05:07:00,41.6,41.1,30.23,NW,311,0.0,0.0,98,0.00,,,0.01,Wunderground v.1.15,2013-10-08 09:07:00,
2013-10-08 05:10:00,41.6,41.1,30.23,NW,312,0.0,0.0,98,0.00,,,0.01,Wunderground v.1.15,2013-10-08 09:10:00,
2013-10-08 05:11:00,41.6,41.1,30.23,NW,312,0.0,0.0,98,0.00,,,0.01,Wunderground v.1.15,2013-10-08 09:11:00,
2013-10-08 05:12:00,41.6,41.1,30.23,NW,312,0.0,0.0,98,0.00,,,0.01,Wunderground v.1.15,2013-10-08 09:12:00,
2013-10-08 05:13:00,41.6,41.1,30.23,NW,312,0.0,0.0,98,0.00,,,0.01,Wunderground v.1.15,2013-10-08 09:13:00,
2013-10-08 05:15:00,41.5,41.0,30.24,NW,311,0.0,0.0,98,0.00,,,0.01,Wunderground v.1.15,2013-10-08 09:15:00,
2013-10-08 05:16:00,41.5,41.0,30.23,NW,311,0.0,0.0,98,0.00,,,0.01,Wunderground v.1.15,2013-10-08 09:16:00,
2013-10-08 05:17:00,41.5,41.0,30.23,NW,312,0.0,0.0,98,0.00,,,0.01,Wunderground v.1.15,2013-10-08 09:17:00,
2013-10-08 05:18:00,41.5,41.0,30.24,NW,312,0.0,0.0,98,0.00,,,0.01,Wunderground v.1.15,2013-10-08 09:18:00,
2013-10-08 05:20:00,41.5,41.0,30.24,NW,312,0.0,0.0,98,0.00,,,0.01,Wunderground v.1.15,2013-10-08 09:20:00,
2013-10-08 05:21:00,41.5,41.0,30.24,NW,311,0.0,0.0,98,0.00,,,0.01,Wunderground v.1.15,2013-10-08 09:21:00,
2013-10-08 05:23:00,41.5,41.0,30.24,NW,312,0.0,0.0,98,0.00,,,0.01,Wunderground v.1.15,2013-10-08 09:23:00,
2013-10-08 05:25:00,41.5,41.0,30.24,NW,312,0.0,0.0,98,0.00,,,0.01,Wunderground v.1.15,2013-10-08 09:25:00,
2013-10-08 05:26:00,41.5,41.0,30.24,NW,311,0.0,0.0,98,0.00,,,0.01,Wunderground v.1.15,2013-10-08 09:26:00,
2013-10-08 05:28:00,41.5,41.0,30.24,NW,312,0.0,0.0,98,0.00,,,0.01,Wunderground v.1.15,2013-10-08 09:28:00,
2013-10-08 05:29:00,41.5,41.0,30.24,NW,312,0.0,0.0,98,0.00,,,0.01,Wunderground v.1.15,2013-10-08 09:29:00,
2013-10-08 05:31:00,41.4,40.9,30.24,NW,311,0.0,0.0,98,0.00,,,0.01,Wunderground v.1.15,2013-10-08 09:31:00,
2013-10-08 05:33:00,41.5,41.0,30.24,NW,312,0.0,0.0,98,0.00,,,0.01,Wunderground v.1.15,2013-10-08 09:33:00,
2013-10-08 05:34:00,41.6,41.1,30.24,NW,311,0.0,0.0,98,0.00,,,0.01,Wunderground v.1.15,2013-10-08 09:34:00,
2013-10-08 05:36:00,41.7,41.2,30.24,NW,312,0.0,0.0,98,0.00,,,0.01,Wunderground v.1.15,2013-10-08 09:36:00,
2013-10-08 05:37:00,41.7,41.2,30.24,NW,312,0.0,0.0,98,0.00,,,0.01,Wunderground v.1.15,2013-10-08 09:37:00,
2013-10-08 05:39:00,41.8,41.3,30.24,NW,312,0.0,0.0,98,0.00,,,0.01,Wunderground v.1.15,2013-10-08 09:39:00,
2013-10-08 05:41:00,41.8,41.3,30.24,NW,311,0.0,0.0,98,0.00,,,0.01,Wunderground v.1.15,2013-10-08 09:41:00,
2013-10-08 05:42:00,41.8,41.3,30.24,NW,311,0.0,0.0,98,0.00,,,0.01,Wunderground v.1.15,2013-10-08 09:42:00,
2013-10-08 05:44:00,41.9,41.4,30.24,NW,312,0.0,0.0,98,0.00,,,0.01,Wunderground v.1.15,2013-10-08 09:44:00,
2013-10-08 05:47:00,41.9,41.4,30.24,NW,312,0.0,0.0,98,0.00,,,0.01,Wunderground v.1.15,2013-10-08 09:47:00,
2013-10-08 05:49:00,41.9,41.4,30.24,NW,311,0.0,0.0,98,0.00,,,0.01,Wunderground v.1.15,2013-10-08 09:49:00,
2013-10-08 05:51:00,41.8,41.3,30.24,NW,311,0.0,0.0,98,0.00,,,0.01,Wunderground v.1.15,2013-10-08 09:51:00,
2013-10-08 05:52:00,41.9,41.4,30.24,NW,312,0.0,0.0,98,0.00,,,0.01,Wunderground v.1.15,2013-10-08 09:52:00,
2013-10-08 05:53:00,41.9,41.4,30.24,NW,311,0.0,0.0,98,0.00,,,0.01,Wunderground v.1.15,2013-10-08 09:53:00,
2013-10-08 05:55:00,41.8,41.3,30.25,NW,311,0.0,0.0,98,0.00,,,0.01,Wunderground v.1.15,2013-10-08 09:55:00,
2013-10-08 05:57:00,41.8,41.3,30.25,NW,311,0.0,0.0,98,0.00,,,0.01,Wunderground v.1.15,2013-10-08 09:57:00,
2013-10-08 05:58:00,41.8,41.3,30.25,NW,312,0.0,0.0,98,0.00,,,0.01,Wunderground v.1.15,2013-10-08 09:58:00,
2013-10-08 06:00:00,41.7,41.2,30.25,NW,312,0.0,0.0,98,0.00,,,0.01,Wunderground v.1.15,2013-10-08 10:00:00,
2013-10-08 06:02:00,41.7,41.2,30.25,NW,311,0.0,0.0,98,0.00,,,0.01,Wunderground v.1.15,2013-10-08 10:02:00,
2013-10-08 06:03:00,41.7,41.2,30.25,NW,312,0.0,0.0,98,0.00,,,0.01,Wunderground v.1.15,2013-10-08 10:03:00,
2013-10-08 06:05:00,41.7,41.2,30.25,NW,312,0.0,0.0,98,0.00,,,0.01,Wunderground v.1.15,2013-10-08 10:05:00,
2013-10-08 06:06:00,41.7,41.2,30.25,NW,311,0.0,0.0,98,0.00,,,0.01,Wunderground v.1.15,2013-10-08 10:06:00,
2013-10-08 06:07:00,41.7,41.2,30.25,NW,311,1.0,1.0,98,0.00,,,0.01,Wunderground v.1.15,2013-10-08 10:07:00,
2013-10-08 06:08:00,41.7,41.2,30.25,NW,313,1.0,1.0,98,0.00,,,0.01,Wunderground v.1.15,2013-10-08 10:08:00,
2013-10-08 06:10:00,41.6,41.1,30.25,NW,314,0.0,0.0,98,0.00,,,0.01,Wunderground v.1.15,2013-10-08 10:10:00,
2013-10-08 06:11:00,41.6,41.1,30.25,NW,313,0.0,0.0,98,0.00,,,0.01,Wunderground v.1.15,2013-10-08 10:11:00,
2013-10-08 06:12:00,41.5,41.0,30.25,NW,314,0.0,0.0,98,0.00,,,0.01,Wunderground v.1.15,2013-10-08 10:12:00,
2013-10-08 06:13:00,41.5,41.0,30.25,NW,314,0.0,0.0,98,0.00,,,0.01,Wunderground v.1.15,2013-10-08 10:13:00,
2013-10-08 06:14:00,41.5,41.0,30.25,NW,313,0.0,0.0,98,0.00,,,0.01,Wunderground v.1.15,2013-10-08 10:14:00,
2013-10-08 06:15:00,41.5,41.0,30.25,NW,314,0.0,0.0,98,0.00,,,0.01,Wunderground v.1.15,2013-10-08 10:15:00,
2013-10-08 06:16:00,41.5,41.0,30.25,NW,313,0.0,0.0,98,0.00,,,0.01,Wunderground v.1.15,2013-10-08 10:16:00,
2013-10-08 06:17:00,41.5,41.0,30.25,NW,314,0.0,0.0,98,0.00,,,0.01,Wunderground v.1.15,2013-10-08 10:17:00,
2013-10-08 06:18:00,41.5,41.0,30.25,NW,314,0.0,0.0,98,0.00,,,0.01,Wunderground v.1.15,2013-10-08 10:18:00,
2013-10-08 06:19:00,41.4,40.9,30.26,NW,314,0.0,0.0,98,0.00,,,0.01,Wunderground v.1.15,2013-10-08 10:19:00,
2013-10-08 06:20:00,41.4,40.9,30.26,NW,314,0.0,0.0,98,0.00,,,0.01,Wunderground v.1.15,2013-10-08 10:20:00,
2013-10-08 06:21:00,41.4,40.9,30.26,NW,314,0.0,0.0,98,0.00,,,0.01,Wunderground v.1.15,2013-10-08 10:21:00,
2013-10-08 06:22:00,41.4,40.9,30.26,NW,314,0.0,0.0,98,0.00,,,0.01,Wunderground v.1.15,2013-10-08 10:22:00,
2013-10-08 06:23:00,41.3,40.8,30.26,NW,313,0.0,0.0,98,0.00,,,0.01,Wunderground v.1.15,2013-10-08 10:23:00,
2013-10-08 06:24:00,41.3,40.8,30.26,NW,314,0.0,0.0,98,0.00,,,0.01,Wunderground v.1.15,2013-10-08 10:24:00,
2013-10-08 06:25:00,41.3,40.8,30.26,NW,314,0.0,0.0,98,0.00,,,0.01,Wunderground v.1.15,2013-10-08 10:25:00,
2013-10-08 06:26:00,41.3,40.8,30.26,NW,314,0.0,0.0,98,0.00,,,0.01,Wunderground v.1.15,2013-10-08 10:26:00,
2013-10-08 06:27:00,41.3,40.8,30.26,NW,314,0.0,0.0,98,0.00,,,0.01,Wunderground v.1.15,2013-10-08 10:27:00,
2013-10-08 06:28:00,41.2,40.7,30.26,NW,313,0.0,0.0,98,0.00,,,0.01,Wunderground v.1.15,2013-10-08 10:28:00,
2013-10-08 06:29:00,41.2,40.7,30.26,NW,314,0.0,0.0,98,0.00,,,0.01,Wunderground v.1.15,2013-10-08 10:29:00,
2013-10-08 06:31:00,41.2,40.7,30.26,NW,314,0.0,0.0,98,0.00,,,0.01,Wunderground v.1.15,2013-10-08 10:31:00,
2013-10-08 06:32:00,41.1,40.6,30.26,NW,314,0.0,0.0,98,0.00,,,0.01,Wunderground v.1.15,2013-10-08 10:32:00,
2013-10-08 06:34:00,41.1,40.6,30.26,NW,314,0.0,0.0,98,0.00,,,0.01,Wunderground v.1.15,2013-10-08 10:34:00,
2013-10-08 06:36:00,41.0,40.5,30.26,NW,314,0.0,0.0,98,0.00,,,0.01,Wunderground v.1.15,2013-10-08 10:36:00,
2013-10-08 06:37:00,40.9,40.4,30.26,NW,313,0.0,0.0,98,0.00,,,0.01,Wunderground v.1.15,2013-10-08 10:37:00,
2013-10-08 06:39:00,40.8,40.3,30.26,NW,314,0.0,0.0,98,0.00,,,0.01,Wunderground v.1.15,2013-10-08 10:39:00,
2013-10-08 06:41:00,40.8,40.3,30.27,NW,314,0.0,0.0,98,0.00,,,0.01,Wunderground v.1.15,2013-10-08 10:41:00,
2013-10-08 06:42:00,40.8,40.3,30.27,NW,314,0.0,0.0,98,0.00,,,0.01,Wunderground v.1.15,2013-10-08 10:42:00,
2013-10-08 06:44:00,40.8,40.3,30.27,NW,314,0.0,0.0,98,0.00,,,0.01,Wunderground v.1.15,2013-10-08 10:44:00,
2013-10-08 06:46:00,40.7,40.2,30.27,NW,314,0.0,0.0,98,0.00,,,0.01,Wunderground v.1.15,2013-10-08 10:46:00,
2013-10-08 06:47:00,40.7,40.2,30.27,NW,313,0.0,0.0,98,0.00,,,0.01,Wunderground v.1.15,2013-10-08 10:47:00,
2013-10-08 06:49:00,40.6,40.1,30.27,NW,314,0.0,0.0,98,0.00,,,0.01,Wunderground v.1.15,2013-10-08 10:49:00,
2013-10-08 06:50:00,40.6,40.1,30.27,NW,314,0.0,0.0,98,0.00,,,0.01,Wunderground v.1.15,2013-10-08 10:50:00,
2013-10-08 06:51:00,40.6,40.1,30.27,NW,314,0.0,0.0,98,0.00,,,0.01,Wunderground v.1.15,2013-10-08 10:51:00,
2013-10-08 06:53:00,40.6,40.1,30.27,NW,314,0.0,0.0,98,0.00,,,0.01,Wunderground v.1.15,2013-10-08 10:53:00,
2013-10-08 06:54:00,40.6,40.1,30.27,NW,314,0.0,0.0,98,0.00,,,0.01,Wunderground v.1.15,2013-10-08 10:54:00,
2013-10-08 06:55:00,40.6,40.1,30.27,NW,314,0.0,0.0,98,0.00,,,0.01,Wunderground v.1.15,2013-10-08 10:55:00,
2013-10-08 06:56:00,40.6,40.1,30.28,NW,314,0.0,0.0,98,0.00,,,0.01,Wunderground v.1.15,2013-10-08 10:56:00,
2013-10-08 06:57:00,40.6,40.1,30.28,NW,313,0.0,0.0,98,0.00,,,0.01,Wunderground v.1.15,2013-10-08 10:57:00,
2013-10-08 06:58:00,40.5,40.0,30.27,NW,314,0.0,0.0,98,0.00,,,0.01,Wunderground v.1.15,2013-10-08 10:58:00,
2013-10-08 06:59:00,40.5,40.0,30.27,NW,314,0.0,0.0,98,0.00,,,0.01,Wunderground v.1.15,2013-10-08 10:59:00,
2013-10-08 07:00:00,40.4,39.9,30.28,NW,313,0.0,0.0,98,0.00,,,0.01,Wunderground v.1.15,2013-10-08 11:00:00,
2013-10-08 07:01:00,40.4,39.9,30.28,NW,313,0.0,0.0,98,0.00,,,0.01,Wunderground v.1.15,2013-10-08 11:01:00,
2013-10-08 07:02:00,40.4,39.9,30.28,NW,313,0.0,0.0,98,0.00,,,0.01,Wunderground v.1.15,2013-10-08 11:02:00,
2013-10-08 07:03:00,40.3,39.8,30.28,NW,314,0.0,0.0,98,0.00,,,0.01,Wunderground v.1.15,2013-10-08 11:03:00,
2013-10-08 07:05:00,40.3,39.8,30.28,NW,314,0.0,0.0,98,0.00,,,0.01,Wunderground v.1.15,2013-10-08 11:05:00,
2013-10-08 07:06:00,40.2,39.7,30.28,NW,313,0.0,0.0,98,0.00,,,0.01,Wunderground v.1.15,2013-10-08 11:06:00,
2013-10-08 07:07:00,40.3,39.8,30.28,NW,313,0.0,0.0,98,0.00,,,0.01,Wunderground v.1.15,2013-10-08 11:07:00,
2013-10-08 07:08:00,40.3,39.8,30.28,NW,313,0.0,0.0,98,0.00,,,0.01,Wunderground v.1.15,2013-10-08 11:08:00,
2013-10-08 07:10:00,40.4,39.9,30.28,NW,314,0.0,0.0,98,0.00,,,0.01,Wunderground v.1.15,2013-10-08 11:10:00,
2013-10-08 07:11:00,40.4,39.9,30.28,NW,314,0.0,0.0,98,0.00,,,0.01,Wunderground v.1.15,2013-10-08 11:11:00,
2013-10-08 07:12:00,40.4,39.9,30.28,NW,314,0.0,0.0,98,0.00,,,0.01,Wunderground v.1.15,2013-10-08 11:12:00,
2013-10-08 07:13:00,40.5,40.0,30.28,NW,314,0.0,0.0,98,0.00,,,0.01,Wunderground v.1.15,2013-10-08 11:13:00,
2013-10-08 07:15:00,40.6,40.1,30.28,NW,314,0.0,0.0,98,0.00,,,0.01,Wunderground v.1.15,2013-10-08 11:15:00,
2013-10-08 07:16:00,40.6,40.1,30.28,NW,314,0.0,0.0,98,0.00,,,0.01,Wunderground v.1.15,2013-10-08 11:16:00,
2013-10-08 07:17:00,40.6,40.1,30.28,NW,313,0.0,0.0,98,0.00,,,0.01,Wunderground v.1.15,2013-10-08 11:17:00,
2013-10-08 07:18:00,40.6,40.1,30.28,NW,313,0.0,0.0,98,0.00,,,0.01,Wunderground v.1.15,2013-10-08 11:18:00,
2013-10-08 07:20:00,40.8,40.3,30.28,NW,314,0.0,0.0,98,0.00,,,0.01,Wunderground v.1.15,2013-10-08 11:20:00,
2013-10-08 07:22:00,40.8,40.3,30.28,NW,314,0.0,0.0,98,0.00,,,0.01,Wunderground v.1.15,2013-10-08 11:22:00,
2013-10-08 07:23:00,40.8,40.3,30.28,NW,314,0.0,0.0,98,0.00,,,0.01,Wunderground v.1.15,2013-10-08 11:23:00,
2013-10-08 07:24:00,40.8,40.3,30.28,NW,313,0.0,0.0,98,0.00,,,0.01,Wunderground v.1.15,2013-10-08 11:24:00,
2013-10-08 07:25:00,40.8,40.3,30.28,NW,314,0.0,0.0,98,0.00,,,0.01,Wunderground v.1.15,2013-10-08 11:25:00,
2013-10-08 07:27:00,40.7,40.2,30.28,NW,314,0.0,0.0,98,0.00,,,0.01,Wunderground v.1.15,2013-10-08 11:27:00,
2013-10-08 07:28:00,40.7,40.2,30.28,NW,314,0.0,0.0,98,0.00,,,0.01,Wunderground v.1.15,2013-10-08 11:28:00,
2013-10-08 07:29:00,40.7,40.2,30.28,NW,314,0.0,0.0,98,0.00,,,0.01,Wunderground v.1.15,2013-10-08 11:29:00,
2013-10-08 07:30:00,40.7,40.2,30.28,NW,314,0.0,0.0,98,0.00,,,0.01,Wunderground v.1.15,2013-10-08 11:30:00,
2013-10-08 07:33:00,40.6,40.1,30.28,NW,314,0.0,0.0,98,0.00,,,0.01,Wunderground v.1.15,2013-10-08 11:33:00,
2013-10-08 07:34:00,40.5,40.0,30.28,NW,314,0.0,0.0,98,0.00,,,0.01,Wunderground v.1.15,2013-10-08 11:34:00,
2013-10-08 07:35:00,40.5,40.0,30.28,NW,314,0.0,0.0,98,0.00,,,0.01,Wunderground v.1.15,2013-10-08 11:35:00,
2013-10-08 07:38:00,40.4,39.9,30.28,NW,314,0.0,0.0,98,0.00,,,0.01,Wunderground v.1.15,2013-10-08 11:38:00,
2013-10-08 07:39:00,40.4,39.9,30.28,NW,314,0.0,0.0,98,0.00,,,0.01,Wunderground v.1.15,2013-10-08 11:39:00,
2013-10-08 07:40:00,40.4,39.9,30.29,NW,314,0.0,0.0,98,0.00,,,0.01,Wunderground v.1.15,2013-10-08 11:40:00,
2013-10-08 07:41:00,40.3,39.8,30.29,NW,314,0.0,0.0,98,0.00,,,0.01,Wunderground v.1.15,2013-10-08 11:41:00,
2013-10-08 07:43:00,40.2,39.7,30.29,NW,314,0.0,0.0,98,0.00,,,0.01,Wunderground v.1.15,2013-10-08 11:43:00,
2013-10-08 07:44:00,40.2,39.7,30.29,NW,314,0.0,0.0,98,0.00,,,0.01,Wunderground v.1.15,2013-10-08 11:44:00,
2013-10-08 07:45:00,40.1,39.6,30.29,NW,314,0.0,0.0,98,0.00,,,0.01,Wunderground v.1.15,2013-10-08 11:45:00,
2013-10-08 07:46:00,40.1,39.6,30.29,NW,314,0.0,0.0,98,0.00,,,0.01,Wunderground v.1.15,2013-10-08 11:46:00,
2013-10-08 07:48:00,40.0,39.5,30.29,NW,314,0.0,0.0,98,0.00,,,0.01,Wunderground v.1.15,2013-10-08 11:48:00,
2013-10-08 07:49:00,40.1,39.6,30.29,NW,314,0.0,0.0,98,0.00,,,0.01,Wunderground v.1.15,2013-10-08 11:49:00,
2013-10-08 07:50:00,40.1,39.6,30.29,NW,313,0.0,0.0,98,0.00,,,0.01,Wunderground v.1.15,2013-10-08 11:50:00,
2013-10-08 07:51:00,40.1,39.6,30.29,NW,314,0.0,0.0,98,0.00,,,0.01,Wunderground v.1.15,2013-10-08 11:51:00,
2013-10-08 07:53:00,40.2,39.7,30.29,NW,313,0.0,0.0,98,0.00,,,0.01,Wunderground v.1.15,2013-10-08 11:53:00,
2013-10-08 07:54:00,40.3,39.8,30.29,NW,314,0.0,0.0,98,0.00,,,0.01,Wunderground v.1.15,2013-10-08 11:54:00,
2013-10-08 07:55:00,40.3,39.8,30.29,NW,314,0.0,0.0,98,0.00,,,0.01,Wunderground v.1.15,2013-10-08 11:55:00,
2013-10-08 07:56:00,40.3,39.8,30.29,NW,314,0.0,0.0,98,0.00,,,0.01,Wunderground v.1.15,2013-10-08 11:56:00,
2013-10-08 07:58:00,40.3,39.8,30.30,NW,313,0.0,0.0,98,0.00,,,0.01,Wunderground v.1.15,2013-10-08 11:58:00,
2013-10-08 07:59:00,40.3,39.8,30.30,NW,314,0.0,0.0,98,0.00,,,0.01,Wunderground v.1.15,2013-10-08 11:59:00,
2013-10-08 08:00:00,40.3,39.8,30.30,NW,314,0.0,0.0,98,0.00,,,0.01,Wunderground v.1.15,2013-10-08 12:00:00,
2013-10-08 08:01:00,40.3,39.8,30.30,NW,314,0.0,0.0,98,0.00,,,0.01,Wunderground v.1.15,2013-10-08 12:01:00,
2013-10-08 08:04:00,40.2,39.7,30.30,NW,314,0.0,0.0,98,0.00,,,0.01,Wunderground v.1.15,2013-10-08 12:04:00,
2013-10-08 08:06:00,40.2,39.7,30.30,NW,313,0.0,0.0,98,0.00,,,0.01,Wunderground v.1.15,2013-10-08 12:06:00,
2013-10-08 08:09:00,40.1,39.6,30.30,NW,313,0.0,0.0,98,0.00,,,0.01,Wunderground v.1.15,2013-10-08 12:09:00,
2013-10-08 08:11:00,40.1,39.6,30.30,NW,314,0.0,0.0,98,0.00,,,0.01,Wunderground v.1.15,2013-10-08 12:11:00,
2013-10-08 08:12:00,40.1,39.6,30.30,NW,314,0.0,0.0,98,0.00,,,0.01,Wunderground v.1.15,2013-10-08 12:12:00,
2013-10-08 08:15:00,40.1,39.6,30.30,NW,314,0.0,0.0,98,0.00,,,0.01,Wunderground v.1.15,2013-10-08 12:15:00,
2013-10-08 08:16:00,40.1,39.6,30.30,NW,313,0.0,0.0,98,0.00,,,0.01,Wunderground v.1.15,2013-10-08 12:16:00,
2013-10-08 08:17:00,40.1,39.6,30.30,NW,313,0.0,0.0,98,0.00,,,0.01,Wunderground v.1.15,2013-10-08 12:17:00,
2013-10-08 08:20:00,40.3,39.8,30.30,NW,314,0.0,0.0,98,0.00,,,0.01,Wunderground v.1.15,2013-10-08 12:20:00,
2013-10-08 08:21:00,40.3,39.8,30.30,NW,314,0.0,0.0,98,0.00,,,0.01,Wunderground v.1.15,2013-10-08 12:21:00,
2013-10-08 08:22:00,40.3,39.8,30.30,NW,314,0.0,0.0,98,0.00,,,0.01,Wunderground v.1.15,2013-10-08 12:22:00,
2013-10-08 08:23:00,40.3,39.8,30.30,NW,314,0.0,0.0,98,0.00,,,0.01,Wunderground v.1.15,2013-10-08 12:23:00,
2013-10-08 08:25:00,40.3,39.8,30.31,NW,314,0.0,0.0,98,0.00,,,0.01,Wunderground v.1.15,2013-10-08 12:25:00,
2013-10-08 08:26:00,40.3,39.8,30.31,NW,313,0.0,0.0,98,0.00,,,0.01,Wunderground v.1.15,2013-10-08 12:26:00,
2013-10-08 08:27:00,40.3,39.8,30.31,NW,314,0.0,0.0,98,0.00,,,0.01,Wunderground v.1.15,2013-10-08 12:27:00,
2013-10-08 08:28:00,40.3,39.8,30.31,NW,313,0.0,0.0,98,0.00,,,0.01,Wunderground v.1.15,2013-10-08 12:28:00,
2013-10-08 08:31:00,40.2,39.7,30.31,NW,314,0.0,0.0,98,0.00,,,0.01,Wunderground v.1.15,2013-10-08 12:31:00,
2013-10-08 08:32:00,40.3,39.8,30.31,NW,313,0.0,0.0,98,0.00,,,0.01,Wunderground v.1.15,2013-10-08 12:32:00,
2013-10-08 08:33:00,40.3,39.8,30.31,NW,314,0.0,0.0,98,0.00,,,0.01,Wunderground v.1.15,2013-10-08 12:33:00,
2013-10-08 08:36:00,40.4,39.9,30.31,NW,313,0.0,0.0,98,0.00,,,0.01,Wunderground v.1.15,2013-10-08 12:36:00,
2013-10-08 08:37:00,40.4,39.9,30.31,NW,314,0.0,0.0,98,0.00,,,0.01,Wunderground v.1.15,2013-10-08 12:37:00,
2013-10-08 08:38:00,40.5,40.0,30.31,NW,314,0.0,0.0,98,0.00,,,0.01,Wunderground v.1.15,2013-10-08 12:38:00,
2013-10-08 08:42:00,40.6,40.1,30.32,NW,314,0.0,0.0,98,0.00,,,0.01,Wunderground v.1.15,2013-10-08 12:42:00,
2013-10-08 08:43:00,40.6,40.1,30.32,NW,314,0.0,0.0,98,0.00,,,0.01,Wunderground v.1.15,2013-10-08 12:43:00,
2013-10-08 08:44:00,40.6,40.1,30.32,NW,314,0.0,0.0,98,0.00,,,0.01,Wunderground v.1.15,2013-10-08 12:44:00,
2013-10-08 08:47:00,40.7,40.2,30.32,NW,314,0.0,0.0,98,0.00,,,0.01,Wunderground v.1.15,2013-10-08 12:47:00,
2013-10-08 08:48:00,40.8,40.3,30.32,NW,314,0.0,0.0,98,0.00,,,0.01,Wunderground v.1.15,2013-10-08 12:48:00,
2013-10-08 08:49:00,40.8,40.3,30.32,NW,314,0.0,0.0,98,0.00,,,0.01,Wunderground v.1.15,2013-10-08 12:49:00,
2013-10-08 08:52:00,41.2,40.7,30.32,NW,314,0.0,0.0,98,0.00,,,0.01,Wunderground v.1.15,2013-10-08 12:52:00,
2013-10-08 08:53:00,41.3,40.8,30.32,NW,313,0.0,0.0,98,0.00,,,0.01,Wunderground v.1.15,2013-10-08 12:53:00,
2013-10-08 08:54:00,41.4,40.9,30.32,NW,314,0.0,0.0,98,0.00,,,0.01,Wunderground v.1.15,2013-10-08 12:54:00,
2013-10-08 08:55:00,41.4,40.9,30.32,NW,314,0.0,0.0,98,0.00,,,0.01,Wunderground v.1.15,2013-10-08 12:55:00,
2013-10-08 08:57:00,41.7,41.4,30.32,NW,314,0.0,0.0,99,0.00,,,0.01,Wunderground v.1.15,2013-10-08 12:57:00,
2013-10-08 08:58:00,41.7,41.4,30.32,NW,314,0.0,0.0,99,0.00,,,0.01,Wunderground v.1.15,2013-10-08 12:58:00,
2013-10-08 08:59:00,41.8,41.5,30.32,NW,314,0.0,0.0,99,0.00,,,0.01,Wunderground v.1.15,2013-10-08 12:59:00,
2013-10-08 09:00:00,42.0,41.7,30.32,NW,314,0.0,0.0,99,0.00,,,0.01,Wunderground v.1.15,2013-10-08 13:00:00,
2013-10-08 09:02:00,42.2,41.9,30.32,NW,314,0.0,0.0,99,0.00,,,0.01,Wunderground v.1.15,2013-10-08 13:02:00,
2013-10-08 09:03:00,42.2,41.9,30.32,NW,314,0.0,0.0,99,0.00,,,0.01,Wunderground v.1.15,2013-10-08 13:03:00,
2013-10-08 09:04:00,42.2,41.9,30.32,NW,313,0.0,0.0,99,0.00,,,0.01,Wunderground v.1.15,2013-10-08 13:04:00,
2013-10-08 09:05:00,42.4,42.1,30.32,NW,313,0.0,0.0,99,0.00,,,0.01,Wunderground v.1.15,2013-10-08 13:05:00,
2013-10-08 09:07:00,42.6,42.3,30.32,NW,314,0.0,0.0,99,0.00,,,0.01,Wunderground v.1.15,2013-10-08 13:07:00,
2013-10-08 09:08:00,42.6,42.3,30.32,NW,313,0.0,0.0,99,0.00,,,0.01,Wunderground v.1.15,2013-10-08 13:08:00,
2013-10-08 09:09:00,42.7,42.4,30.32,NW,314,0.0,0.0,99,0.00,,,0.01,Wunderground v.1.15,2013-10-08 13:09:00,
2013-10-08 09:10:00,43.0,42.7,30.32,NW,314,0.0,0.0,99,0.00,,,0.01,Wunderground v.1.15,2013-10-08 13:10:00,
2013-10-08 09:13:00,43.5,43.2,30.33,NW,314,0.0,0.0,99,0.00,,,0.01,Wunderground v.1.15,2013-10-08 13:13:00,
2013-10-08 09:14:00,43.6,43.3,30.33,NW,313,0.0,0.0,99,0.00,,,0.01,Wunderground v.1.15,2013-10-08 13:14:00,
2013-10-08 09:15:00,43.7,43.4,30.33,NW,314,0.0,0.0,99,0.00,,,0.01,Wunderground v.1.15,2013-10-08 13:15:00,
2013-10-08 09:18:00,43.9,43.6,30.33,NW,314,0.0,0.0,99,0.00,,,0.01,Wunderground v.1.15,2013-10-08 13:18:00,
2013-10-08 09:19:00,43.9,43.6,30.33,NW,314,0.0,0.0,99,0.00,,,0.01,Wunderground v.1.15,2013-10-08 13:19:00,
2013-10-08 09:20:00,44.0,43.7,30.33,NW,314,0.0,0.0,99,0.00,,,0.01,Wunderground v.1.15,2013-10-08 13:20:00,
2013-10-08 09:23:00,44.1,43.8,30.33,NW,314,0.0,0.0,99,0.00,,,0.01,Wunderground v.1.15,2013-10-08 13:23:00,
2013-10-08 09:24:00,44.2,43.9,30.33,NW,313,0.0,0.0,99,0.00,,,0.01,Wunderground v.1.15,2013-10-08 13:24:00,
2013-10-08 09:26:00,44.3,44.0,30.33,NW,313,0.0,0.0,99,0.00,,,0.01,Wunderground v.1.15,2013-10-08 13:26:00,
2013-10-08 09:28:00,44.5,44.2,30.33,NW,314,0.0,0.0,99,0.00,,,0.01,Wunderground v.1.15,2013-10-08 13:28:00,
2013-10-08 09:29:00,44.9,44.6,30.33,NW,314,0.0,0.0,99,0.00,,,0.01,Wunderground v.1.15,2013-10-08 13:29:00,
2013-10-08 09:30:00,44.9,44.6,30.33,NW,314,0.0,0.0,99,0.00,,,0.01,Wunderground v.1.15,2013-10-08 13:30:00,
2013-10-08 09:31:00,45.1,44.8,30.33,NW,314,0.0,0.0,99,0.00,,,0.01,Wunderground v.1.15,2013-10-08 13:31:00,
2013-10-08 09:33:00,45.5,45.2,30.33,NW,313,0.0,0.0,99,0.00,,,0.01,Wunderground v.1.15,2013-10-08 13:33:00,
2013-10-08 09:34:00,45.6,45.3,30.33,NW,313,0.0,0.0,99,0.00,,,0.01,Wunderground v.1.15,2013-10-08 13:34:00,
2013-10-08 09:35:00,45.7,45.4,30.33,NW,314,0.0,0.0,99,0.00,,,0.01,Wunderground v.1.15,2013-10-08 13:35:00,
2013-10-08 09:36:00,45.9,45.6,30.33,NW,314,0.0,0.0,99,0.00,,,0.01,Wunderground v.1.15,2013-10-08 13:36:00,
2013-10-08 09:39:00,46.1,45.8,30.33,NW,314,0.0,0.0,99,0.00,,,0.01,Wunderground v.1.15,2013-10-08 13:39:00,
2013-10-08 09:40:00,46.3,46.0,30.33,NW,314,0.0,0.0,99,0.00,,,0.01,Wunderground v.1.15,2013-10-08 13:40:00,
2013-10-08 09:41:00,46.4,46.1,30.33,NW,314,0.0,0.0,99,0.00,,,0.01,Wunderground v.1.15,2013-10-08 13:41:00,
2013-10-08 09:44:00,46.7,46.4,30.33,NW,313,0.0,0.0,99,0.00,,,0.01,Wunderground v.1.15,2013-10-08 13:44:00,
2013-10-08 09:45:00,46.7,46.4,30.33,NW,314,0.0,0.0,99,0.00,,,0.01,Wunderground v.1.15,2013-10-08 13:45:00,
2013-10-08 09:46:00,46.8,46.5,30.33,NW,314,0.0,0.0,99,0.00,,,0.01,Wunderground v.1.15,2013-10-08 13:46:00,
2013-10-08 09:49:00,47.0,46.7,30.33,NW,314,0.0,0.0,99,0.00,,,0.01,Wunderground v.1.15,2013-10-08 13:49:00,
2013-10-08 09:50:00,47.1,46.8,30.33,NW,314,0.0,0.0,99,0.00,,,0.01,Wunderground v.1.15,2013-10-08 13:50:00,
2013-10-08 09:52:00,47.3,47.0,30.34,NW,313,0.0,0.0,99,0.00,,,0.01,Wunderground v.1.15,2013-10-08 13:52:00,
2013-10-08 09:54:00,47.5,47.2,30.34,WNW,291,0.0,0.0,99,0.00,,,0.01,Wunderground v.1.15,2013-10-08 13:54:00,
2013-10-08 09:55:00,47.5,47.2,30.34,WNW,291,0.0,0.0,99,0.00,,,0.01,Wunderground v.1.15,2013-10-08 13:55:00,
2013-10-08 09:57:00,47.8,47.5,30.34,WNW,290,0.0,0.0,99,0.00,,,0.01,Wunderground v.1.15,2013-10-08 13:57:00,
2013-10-08 09:58:00,47.8,47.5,30.34,WNW,291,0.0,0.0,99,0.00,,,0.01,Wunderground v.1.15,2013-10-08 13:58:00,
2013-10-08 10:00:00,47.9,47.6,30.34,WNW,290,0.0,0.0,99,0.00,,,0.01,Wunderground v.1.15,2013-10-08 14:00:00,
2013-10-08 10:01:00,48.1,47.8,30.34,South,176,0.0,0.0,99,0.00,,,0.01,Wunderground v.1.15,2013-10-08 14:01:00,
2013-10-08 10:03:00,48.3,48.0,30.34,SSE,160,0.0,0.0,99,0.00,,,0.01,Wunderground v.1.15,2013-10-08 14:03:00,
2013-10-08 10:05:00,48.5,48.2,30.34,SSE,160,0.0,0.0,99,0.00,,,0.01,Wunderground v.1.15,2013-10-08 14:05:00,
2013-10-08 10:06:00,48.5,48.2,30.34,SSE,160,0.0,0.0,99,0.00,,,0.01,Wunderground v.1.15,2013-10-08 14:06:00,
2013-10-08 10:08:00,48.8,48.5,30.34,SSE,160,0.0,0.0,99,0.00,,,0.01,Wunderground v.1.15,2013-10-08 14:08:00,
2013-10-08 10:10:00,48.9,48.6,30.34,SSE,160,0.0,0.0,99,0.00,,,0.01,Wunderground v.1.15,2013-10-08 14:10:00,
2013-10-08 10:11:00,49.1,48.8,30.34,SSE,160,0.0,0.0,99,0.00,,,0.01,Wunderground v.1.15,2013-10-08 14:11:00,
2013-10-08 10:13:00,49.3,49.0,30.34,SSE,160,0.0,0.0,99,0.00,,,0.01,Wunderground v.1.15,2013-10-08 14:13:00,
2013-10-08 10:14:00,49.3,49.0,30.34,SSE,160,0.0,0.0,99,0.00,,,0.01,Wunderground v.1.15,2013-10-08 14:14:00,
2013-10-08 10:15:00,49.5,49.2,30.34,SSE,160,0.0,0.0,99,0.00,,,0.01,Wunderground v.1.15,2013-10-08 14:15:00,
2013-10-08 10:16:00,49.5,49.2,30.34,SSE,160,0.0,0.0,99,0.00,,,0.01,Wunderground v.1.15,2013-10-08 14:16:00,
2013-10-08 10:18:00,49.6,49.3,30.34,SSE,162,0.0,0.0,99,0.00,,,0.01,Wunderground v.1.15,2013-10-08 14:18:00,
2013-10-08 10:19:00,49.7,49.4,30.34,SSE,162,0.0,0.0,99,0.00,,,0.01,Wunderground v.1.15,2013-10-08 14:19:00,
2013-10-08 10:20:00,49.7,49.4,30.34,SE,145,1.0,1.0,99,0.00,,,0.01,Wunderground v.1.15,2013-10-08 14:20:00,
2013-10-08 10:21:00,49.8,49.5,30.34,SSW,207,0.0,2.0,99,0.00,,,0.01,Wunderground v.1.15,2013-10-08 14:21:00,
2013-10-08 10:22:00,49.9,49.6,30.34,SW,219,0.0,3.0,99,0.00,,,0.01,Wunderground v.1.15,2013-10-08 14:22:00,
2013-10-08 10:24:00,50.0,49.7,30.34,SW,218,0.0,3.0,99,0.00,,,0.01,Wunderground v.1.15,2013-10-08 14:24:00,
2013-10-08 10:25:00,50.2,49.9,30.34,SW,218,0.0,3.0,99,0.00,,,0.01,Wunderground v.1.15,2013-10-08 14:25:00,
2013-10-08 10:26:00,50.4,50.1,30.34,SW,222,1.0,3.0,99,0.00,,,0.01,Wunderground v.1.15,2013-10-08 14:26:00,
2013-10-08 10:27:00,50.6,50.3,30.34,WSW,241,0.0,3.0,99,0.00,,,0.01,Wunderground v.1.15,2013-10-08 14:27:00,
2013-10-08 10:28:00,50.6,50.3,30.34,WSW,240,0.0,3.0,99,0.00,,,0.01,Wunderground v.1.15,2013-10-08 14:28:00,
2013-10-08 10:29:00,50.7,50.4,30.34,WSW,240,0.0,3.0,99,0.00,,,0.01,Wunderground v.1.15,2013-10-08 14:29:00,
2013-10-08 10:30:00,50.9,50.6,30.34,WSW,242,1.0,1.0,99,0.00,,,0.01,Wunderground v.1.15,2013-10-08 14:30:00,
2013-10-08 10:31:00,50.9,50.6,30.34,WSW,241,0.0,1.0,99,0.00,,,0.01,Wunderground v.1.15,2013-10-08 14:31:00,
2013-10-08 10:32:00,51.0,50.7,30.34,WSW,242,0.0,1.0,99,0.00,,,0.01,Wunderground v.1.15,2013-10-08 14:32:00,
2013-10-08 10:33:00,51.1,50.8,30.34,WSW,241,0.0,1.0,99,0.00,,,0.01,Wunderground v.1.15,2013-10-08 14:33:00,
2013-10-08 10:34:00,51.2,50.9,30.34,WSW,242,0.0,1.0,99,0.00,,,0.01,Wunderground v.1.15,2013-10-08 14:34:00,
2013-10-08 10:35:00,51.3,51.0,30.34,WSW,241,0.0,1.0,99,0.00,,,0.01,Wunderground v.1.15,2013-10-08 14:35:00,
2013-10-08 10:37:00,51.5,51.2,30.34,WSW,242,0.0,1.0,99,0.00,,,0.01,Wunderground v.1.15,2013-10-08 14:37:00,
2013-10-08 10:39:00,51.7,51.4,30.34,WSW,243,0.0,1.0,99,0.00,,,0.01,Wunderground v.1.15,2013-10-08 14:39:00,
2013-10-08 10:40:00,51.9,51.6,30.34,WSW,243,0.0,0.0,99,0.00,,,0.01,Wunderground v.1.15,2013-10-08 14:40:00,
2013-10-08 10:41:00,52.0,51.7,30.34,WSW,249,0.0,1.0,99,0.00,,,0.01,Wunderground v.1.15,2013-10-08 14:41:00,
2013-10-08 10:42:00,52.1,51.8,30.34,ENE,58,0.0,1.0,99,0.00,,,0.01,Wunderground v.1.15,2013-10-08 14:42:00,
2013-10-08 10:43:00,52.3,51.8,30.34,SW,224,1.0,1.0,98,0.00,,,0.01,Wunderground v.1.15,2013-10-08 14:43:00,
2013-10-08 10:44:00,52.4,51.9,30.34,SW,224,0.0,1.0,98,0.00,,,0.01,Wunderground v.1.15,2013-10-08 14:44:00,
2013-10-08 10:45:00,52.6,51.8,30.34,SW,224,0.0,1.0,97,0.00,,,0.01,Wunderground v.1.15,2013-10-08 14:45:00,
2013-10-08 10:46:00,52.8,51.7,30.34,SW,224,0.0,1.0,96,0.00,,,0.01,Wunderground v.1.15,2013-10-08 14:46:00,
2013-10-08 10:47:00,53.0,51.6,30.34,SSE,151,1.0,1.0,95,0.00,,,0.01,Wunderground v.1.15,2013-10-08 14:47:00,
2013-10-08 10:49:00,53.4,51.4,30.34,SSE,153,0.0,1.0,93,0.00,,,0.01,Wunderground v.1.15,2013-10-08 14:49:00,
2013-10-08 10:50:00,53.6,51.6,30.34,SSE,152,0.0,0.0,93,0.00,,,0.01,Wunderground v.1.15,2013-10-08 14:50:00,
2013-10-08 10:51:00,53.8,51.2,30.34,WSW,251,1.0,2.0,91,0.00,,,0.01,Wunderground v.1.15,2013-10-08 14:51:00,
2013-10-08 10:52:00,54.1,50.9,30.34,SE,135,0.0,2.0,89,0.00,,,0.01,Wunderground v.1.15,2013-10-08 14:52:00,
2013-10-08 10:54:00,54.5,50.7,30.34,SSE,149,0.0,2.0,87,0.00,,,0.01,Wunderground v.1.15,2013-10-08 14:54:00,
2013-10-08 10:55:00,54.7,50.9,30.34,South,173,0.0,2.0,87,0.00,,,0.01,Wunderground v.1.15,2013-10-08 14:55:00,
2013-10-08 10:56:00,54.9,50.8,30.34,SSW,195,0.0,2.0,86,0.00,,,0.01,Wunderground v.1.15,2013-10-08 14:56:00,
2013-10-08 10:58:00,55.2,50.4,30.34,SW,236,1.0,2.0,84,0.00,,,0.01,Wunderground v.1.15,2013-10-08 14:58:00,
2013-10-08 11:00:00,55.6,50.2,30.34,SE,143,1.0,1.0,82,0.00,,,0.01,Wunderground v.1.15,2013-10-08 15:00:00,
2013-10-08 11:01:00,55.9,50.2,30.34,SSE,158,1.0,3.0,81,0.00,,,0.01,Wunderground v.1.15,2013-10-08 15:01:00,
2013-10-08 11:02:00,56.1,50.3,30.34,SSE,162,1.0,3.0,81,0.00,,,0.01,Wunderground v.1.15,2013-10-08 15:02:00,
2013-10-08 11:04:00,56.4,50.0,30.34,SSE,153,1.0,3.0,79,0.00,,,0.01,Wunderground v.1.15,2013-10-08 15:04:00,
2013-10-08 11:05:00,56.5,49.4,30.34,South,171,0.0,3.0,77,0.00,,,0.01,Wunderground v.1.15,2013-10-08 15:05:00,
2013-10-08 11:06:00,56.7,49.2,30.34,SW,226,2.0,3.0,76,0.00,,,0.01,Wunderground v.1.15,2013-10-08 15:06:00,
2013-10-08 11:07:00,57.0,48.8,30.34,SE,139,1.0,3.0,74,0.00,,,0.01,Wunderground v.1.15,2013-10-08 15:07:00,
2013-10-08 11:09:00,57.2,49.3,30.34,SSE,154,2.0,3.0,75,0.00,,,0.01,Wunderground v.1.15,2013-10-08 15:09:00,
2013-10-08 11:10:00,57.4,49.2,30.34,SSW,200,1.0,2.0,74,0.00,,,0.01,Wunderground v.1.15,2013-10-08 15:10:00,
2013-10-08 11:11:00,57.6,49.4,30.34,SSE,162,2.0,2.0,74,0.00,,,0.01,Wunderground v.1.15,2013-10-08 15:11:00,
2013-10-08 11:12:00,57.8,49.6,30.34,SW,228,1.0,3.0,74,0.00,,,0.01,Wunderground v.1.15,2013-10-08 15:12:00,
2013-10-08 11:13:00,57.9,49.3,30.34,SSE,153,1.0,3.0,73,0.00,,,0.01,Wunderground v.1.15,2013-10-08 15:13:00,
2013-10-08 11:14:00,58.1,49.5,30.34,WSW,243,1.0,3.0,73,0.00,,,0.01,Wunderground v.1.15,2013-10-08 15:14:00,
2013-10-08 11:15:00,58.2,50.0,30.34,ENE,73,1.0,3.0,74,0.00,,,0.01,Wunderground v.1.15,2013-10-08 15:15:00,
2013-10-08 11:16:00,58.3,50.0,30.34,SW,229,0.0,3.0,74,0.00,,,0.01,Wunderground v.1.15,2013-10-08 15:16:00,
2013-10-08 11:17:00,58.5,49.1,30.34,SW,224,1.0,3.0,71,0.00,,,0.01,Wunderground v.1.15,2013-10-08 15:17:00,
2013-10-08 11:18:00,58.6,49.2,30.34,WNW,286,0.0,3.0,71,0.00,,,0.01,Wunderground v.1.15,2013-10-08 15:18:00,
2013-10-08 11:19:00,58.6,48.8,30.34,West,281,1.0,3.0,70,0.00,,,0.01,Wunderground v.1.15,2013-10-08 15:19:00,
2013-10-08 11:20:00,58.7,48.9,30.34,WSW,239,1.0,3.0,70,0.00,,,0.01,Wunderground v.1.15,2013-10-08 15:20:00,
2013-10-08 11:21:00,58.8,49.0,30.34,South,190,1.0,3.0,70,0.00,,,0.01,Wunderground v.1.15,2013-10-08 15:21:00,
2013-10-08 11:22:00,58.8,48.6,30.34,SSW,208,0.0,3.0,69,0.00,,,0.01,Wunderground v.1.15,2013-10-08 15:22:00,
2013-10-08 11:23:00,58.9,48.7,30.34,SSW,208,0.0,3.0,69,0.00,,,0.01,Wunderground v.1.15,2013-10-08 15:23:00,
2013-10-08 11:24:00,59.1,49.3,30.33,SW,222,0.0,3.0,70,0.00,,,0.01,Wunderground v.1.15,2013-10-08 15:24:00,
2013-10-08 11:25:00,59.1,49.3,30.33,SSE,163,0.0,3.0,70,0.00,,,0.01,Wunderground v.1.15,2013-10-08 15:25:00,
2013-10-08 11:26:00,59.3,49.1,30.34,West,266,0.0,3.0,69,0.00,,,0.01,Wunderground v.1.15,2013-10-08 15:26:00,
2013-10-08 11:27:00,59.3,49.1,30.33,SW,218,1.0,3.0,69,0.00,,,0.01,Wunderground v.1.15,2013-10-08 15:27:00,
2013-10-08 11:28:00,59.4,49.2,30.34,South,187,2.0,3.0,69,0.00,,,0.01,Wunderground v.1.15,2013-10-08 15:28:00,
2013-10-08 11:29:00,59.6,49.0,30.33,SW,214,0.0,3.0,68,0.00,,,0.01,Wunderground v.1.15,2013-10-08 15:29:00,
2013-10-08 11:30:00,59.7,49.1,30.33,SSW,211,0.0,1.0,68,0.00,,,0.01,Wunderground v.1.15,2013-10-08 15:30:00,
2013-10-08 11:31:00,59.9,49.3,30.33,SSE,153,0.0,2.0,68,0.00,,,0.01,Wunderground v.1.15,2013-10-08 15:31:00,
2013-10-08 11:32:00,59.9,48.9,30.33,SSW,212,1.0,2.0,67,0.00,,,0.01,Wunderground v.1.15,2013-10-08 15:32:00,
2013-10-08 11:33:00,60.0,49.0,30.33,SW,221,0.0,2.0,67,0.00,,,0.01,Wunderground v.1.15,2013-10-08 15:33:00,
2013-10-08 11:34:00,60.1,49.5,30.33,SSW,211,0.0,2.0,68,0.00,,,0.01,Wunderground v.1.15,2013-10-08 15:34:00,
2013-10-08 11:35:00,60.2,49.6,30.33,SSW,211,0.0,2.0,68,0.00,,,0.01,Wunderground v.1.15,2013-10-08 15:35:00,
2013-10-08 11:37:00,60.3,49.3,30.33,SSW,198,0.0,2.0,67,0.00,,,0.01,Wunderground v.1.15,2013-10-08 15:37:00,
2013-10-08 11:38:00,60.4,48.6,30.33,South,176,0.0,4.0,65,0.00,,,0.01,Wunderground v.1.15,2013-10-08 15:38:00,
2013-10-08 11:40:00,60.5,48.7,30.33,SW,215,1.0,3.0,65,0.00,,,0.01,Wunderground v.1.15,2013-10-08 15:40:00,
2013-10-08 11:41:00,60.6,48.8,30.33,WSW,238,3.0,3.0,65,0.00,,,0.01,Wunderground v.1.15,2013-10-08 15:41:00,
2013-10-08 11:42:00,60.6,48.4,30.33,WSW,238,2.0,3.0,64,0.00,,,0.01,Wunderground v.1.15,2013-10-08 15:42:00,
2013-10-08 11:43:00,60.7,47.6,30.33,SW,218,1.0,3.0,62,0.00,,,0.01,Wunderground v.1.15,2013-10-08 15:43:00,
2013-10-08 11:44:00,60.7,48.9,30.33,WSW,239,0.0,3.0,65,0.00,,,0.01,Wunderground v.1.15,2013-10-08 15:44:00,
2013-10-08 11:45:00,60.7,48.4,30.33,West,259,1.0,3.0,64,0.00,,,0.01,Wunderground v.1.15,2013-10-08 15:45:00,
2013-10-08 11:46:00,60.8,48.1,30.33,WSW,238,0.0,3.0,63,0.00,,,0.01,Wunderground v.1.15,2013-10-08 15:46:00,
2013-10-08 11:47:00,60.8,47.7,30.33,WSW,246,1.0,3.0,62,0.00,,,0.01,Wunderground v.1.15,2013-10-08 15:47:00,
2013-10-08 11:48:00,60.8,47.7,30.33,ESE,106,1.0,3.0,62,0.00,,,0.01,Wunderground v.1.15,2013-10-08 15:48:00,
2013-10-08 11:49:00,60.8,48.1,30.33,SW,228,0.0,3.0,63,0.00,,,0.01,Wunderground v.1.15,2013-10-08 15:49:00,
2013-10-08 11:50:00,60.9,48.2,30.33,WSW,249,1.0,2.0,63,0.00,,,0.01,Wunderground v.1.15,2013-10-08 15:50:00,
2013-10-08 11:51:00,61.0,48.7,30.33,WSW,255,1.0,2.0,64,0.00,,,0.01,Wunderground v.1.15,2013-10-08 15:51:00,
2013-10-08 11:52:00,61.0,48.7,30.33,SW,214,0.0,2.0,64,0.00,,,0.01,Wunderground v.1.15,2013-10-08 15:52:00,
2013-10-08 11:53:00,61.1,49.2,30.33,SW,223,3.0,3.0,65,0.00,,,0.01,Wunderground v.1.15,2013-10-08 15:53:00,
2013-10-08 11:54:00,61.2,48.1,30.33,South,169,3.0,5.0,62,0.00,,,0.01,Wunderground v.1.15,2013-10-08 15:54:00,
2013-10-08 11:55:00,61.3,48.2,30.33,NNE,32,1.0,5.0,62,0.00,,,0.01,Wunderground v.1.15,2013-10-08 15:55:00,
2013-10-08 11:56:00,61.4,48.7,30.33,East,96,1.0,5.0,63,0.00,,,0.01,Wunderground v.1.15,2013-10-08 15:56:00,
2013-10-08 11:57:00,61.4,48.7,30.33,East,98,0.0,5.0,63,0.00,,,0.01,Wunderground v.1.15,2013-10-08 15:57:00,
2013-10-08 11:58:00,61.5,48.8,30.33,East,98,0.0,5.0,63,0.00,,,0.01,Wunderground v.1.15,2013-10-08 15:58:00,
2013-10-08 11:59:00,61.6,48.9,30.33,East,100,0.0,5.0,63,0.00,,,0.01,Wunderground v.1.15,2013-10-08 15:59:00,
2013-10-08 12:01:00,61.7,49.4,30.33,West,263,0.0,1.0,64,0.00,,,0.01,Wunderground v.1.15,2013-10-08 16:01:00,
2013-10-08 12:02:00,61.8,48.6,30.33,SE,138,2.0,2.0,62,0.00,,,0.01,Wunderground v.1.15,2013-10-08 16:02:00,
2013-10-08 12:03:00,61.9,47.4,30.33,SE,143,1.0,4.0,59,0.00,,,0.01,Wunderground v.1.15,2013-10-08 16:03:00,
2013-10-08 12:05:00,62.1,48.0,30.33,SW,236,1.0,4.0,60,0.00,,,0.01,Wunderground v.1.15,2013-10-08 16:05:00,
2013-10-08 12:06:00,62.1,48.0,30.33,WSW,256,3.0,4.0,60,0.00,,,0.01,Wunderground v.1.15,2013-10-08 16:06:00,
2013-10-08 12:07:00,62.2,48.1,30.33,SW,232,1.0,4.0,60,0.00,,,0.01,Wunderground v.1.15,2013-10-08 16:07:00,
2013-10-08 12:08:00,62.3,47.8,30.33,West,276,1.0,4.0,59,0.00,,,0.01,Wunderground v.1.15,2013-10-08 16:08:00,
2013-10-08 12:11:00,62.5,47.5,30.33,WSW,254,0.0,1.0,58,0.00,,,0.01,Wunderground v.1.15,2013-10-08 16:11:00,
2013-10-08 12:12:00,62.5,48.4,30.33,SE,145,1.0,1.0,60,0.00,,,0.01,Wunderground v.1.15,2013-10-08 16:12:00,
2013-10-08 12:14:00,62.8,48.3,30.33,South,188,1.0,2.0,59,0.00,,,0.01,Wunderground v.1.15,2013-10-08 16:14:00,
2013-10-08 12:16:00,63.0,48.0,30.33,East,91,4.0,5.0,58,0.00,,,0.01,Wunderground v.1.15,2013-10-08 16:16:00,
2013-10-08 12:17:00,63.0,48.0,30.33,ESE,123,1.0,5.0,58,0.00,,,0.01,Wunderground v.1.15,2013-10-08 16:17:00,
2013-10-08 12:19:00,63.1,47.1,30.33,SSE,150,0.0,5.0,56,0.00,,,0.01,Wunderground v.1.15,2013-10-08 16:19:00,
2013-10-08 12:21:00,63.3,46.9,30.33,SSW,211,0.0,2.0,55,0.00,,,0.01,Wunderground v.1.15,2013-10-08 16:21:00,
2013-10-08 12:22:00,63.3,46.9,30.33,WSW,252,3.0,4.0,55,0.00,,,0.01,Wunderground v.1.15,2013-10-08 16:22:00,
2013-10-08 12:23:00,63.4,46.5,30.33,WSW,245,0.0,4.0,54,0.00,,,0.01,Wunderground v.1.15,2013-10-08 16:23:00,
2013-10-08 12:24:00,63.4,46.9,30.33,SSE,162,0.0,4.0,55,0.00,,,0.01,Wunderground v.1.15,2013-10-08 16:24:00,
2013-10-08 12:26:00,63.6,46.6,30.33,WSW,245,2.0,4.0,54,0.00,,,0.01,Wunderground v.1.15,2013-10-08 16:26:00,
2013-10-08 12:27:00,63.6,46.6,30.33,WSW,240,0.0,4.0,54,0.00,,,0.01,Wunderground v.1.15,2013-10-08 16:27:00,
2013-10-08 12:28:00,63.6,46.6,30.33,South,180,0.0,4.0,54,0.00,,,0.01,Wunderground v.1.15,2013-10-08 16:28:00,
2013-10-08 12:29:00,63.6,45.6,30.33,ENE,62,1.0,4.0,52,0.00,,,0.01,Wunderground v.1.15,2013-10-08 16:29:00,
2013-10-08 12:32:00,63.6,46.1,30.33,West,264,2.0,5.0,53,0.00,,,0.01,Wunderground v.1.15,2013-10-08 16:32:00,
2013-10-08 12:33:00,63.5,46.1,30.33,SE,139,1.0,6.0,53,0.00,,,0.01,Wunderground v.1.15,2013-10-08 16:33:00,
2013-10-08 12:34:00,63.5,46.1,30.33,SW,219,3.0,6.0,53,0.00,,,0.01,Wunderground v.1.15,2013-10-08 16:34:00,
2013-10-08 12:36:00,63.6,46.6,30.33,SW,225,0.0,6.0,54,0.00,,,0.01,Wunderground v.1.15,2013-10-08 16:36:00,
2013-10-08 12:38:00,63.6,46.6,30.33,SSE,150,2.0,6.0,54,0.00,,,0.01,Wunderground v.1.15,2013-10-08 16:38:00,
2013-10-08 12:39:00,63.6,45.6,30.33,SSW,212,1.0,6.0,52,0.00,,,0.01,Wunderground v.1.15,2013-10-08 16:39:00,
2013-10-08 12:42:00,63.8,46.8,30.33,ESE,116,1.0,2.0,54,0.00,,,0.01,Wunderground v.1.15,2013-10-08 16:42:00,
2013-10-08 12:43:00,63.9,46.9,30.33,SSE,153,1.0,8.0,54,0.00,,,0.01,Wunderground v.1.15,2013-10-08 16:43:00,
2013-10-08 12:44:00,63.9,45.9,30.33,SSW,201,1.0,8.0,52,0.00,,,0.01,Wunderground v.1.15,2013-10-08 16:44:00,
2013-10-08 12:45:00,63.9,46.4,30.33,ESE,113,1.0,8.0,53,0.00,,,0.01,Wunderground v.1.15,2013-10-08 16:45:00,
2013-10-08 12:47:00,64.1,46.6,30.33,WNW,303,2.0,8.0,53,0.00,,,0.01,Wunderground v.1.15,2013-10-08 16:47:00,
2013-10-08 12:48:00,64.0,46.0,30.33,SE,137,1.0,8.0,52,0.00,,,0.01,Wunderground v.1.15,2013-10-08 16:48:00,
2013-10-08 12:49:00,64.0,46.5,30.33,East,91,1.0,8.0,53,0.00,,,0.01,Wunderground v.1.15,2013-10-08 16:49:00,
2013-10-08 12:50:00,64.0,46.5,30.33,SE,136,2.0,2.0,53,0.00,,,0.01,Wunderground v.1.15,2013-10-08 16:50:00,
2013-10-08 12:52:00,64.0,47.0,30.33,WSW,238,0.0,4.0,54,0.00,,,0.01,Wunderground v.1.15,2013-10-08 16:52:00,
2013-10-08 12:53:00,64.1,47.1,30.33,SW,225,2.0,4.0,54,0.00,,,0.01,Wunderground v.1.15,2013-10-08 16:53:00,
2013-10-08 12:54:00,64.1,46.1,30.33,SW,224,1.0,4.0,52,0.00,,,0.01,Wunderground v.1.15,2013-10-08 16:54:00,
2013-10-08 12:55:00,64.1,45.6,30.33,ESE,118,3.0,4.0,51,0.00,,,0.01,Wunderground v.1.15,2013-10-08 16:55:00,
2013-10-08 12:58:00,64.1,46.6,30.33,WSW,255,1.0,4.0,53,0.00,,,0.01,Wunderground v.1.15,2013-10-08 16:58:00,
2013-10-08 12:59:00,64.1,46.1,30.33,SSE,156,2.0,4.0,52,0.00,,,0.01,Wunderground v.1.15,2013-10-08 16:59:00,
2013-10-08 13:00:00,64.1,46.1,30.33,ESE,117,1.0,3.0,52,0.00,,,0.01,Wunderground v.1.15,2013-10-08 17:00:00,
2013-10-08 13:03:00,64.3,47.3,30.33,East,101,1.0,3.0,54,0.00,,,0.01,Wunderground v.1.15,2013-10-08 17:03:00,
2013-10-08 13:04:00,64.3,47.3,30.33,SE,128,1.0,3.0,54,0.00,,,0.01,Wunderground v.1.15,2013-10-08 17:04:00,
2013-10-08 13:05:00,64.4,47.4,30.33,SSW,200,2.0,3.0,54,0.00,,,0.01,Wunderground v.1.15,2013-10-08 17:05:00,
2013-10-08 13:09:00,64.5,46.5,30.33,East,97,1.0,3.0,52,0.00,,,0.01,Wunderground v.1.15,2013-10-08 17:09:00,
2013-10-08 13:10:00,64.5,46.5,30.33,SE,146,2.0,2.0,52,0.00,,,0.01,Wunderground v.1.15,2013-10-08 17:10:00,
2013-10-08 13:11:00,64.5,46.0,30.33,SE,141,0.0,3.0,51,0.00,,,0.01,Wunderground v.1.15,2013-10-08 17:11:00,
2013-10-08 13:14:00,64.5,46.0,30.33,ESE,116,1.0,6.0,51,0.00,,,0.01,Wunderground v.1.15,2013-10-08 17:14:00,
2013-10-08 13:15:00,64.6,46.6,30.33,SE,144,2.0,6.0,52,0.00,,,0.01,Wunderground v.1.15,2013-10-08 17:15:00,
2013-10-08 13:16:00,64.6,46.6,30.33,WSW,252,3.0,6.0,52,0.00,,,0.01,Wunderground v.1.15,2013-10-08 17:16:00,
2013-10-08 13:19:00,64.6,46.6,30.33,SE,132,1.0,6.0,52,0.00,,,0.01,Wunderground v.1.15,2013-10-08 17:19:00,
2013-10-08 13:20:00,64.7,47.2,30.33,SE,145,0.0,1.0,53,0.00,,,0.01,Wunderground v.1.15,2013-10-08 17:20:00,
2013-10-08 13:21:00,64.8,47.3,30.33,SE,145,0.0,1.0,53,0.00,,,0.01,Wunderground v.1.15,2013-10-08 17:21:00,
2013-10-08 13:24:00,65.0,45.9,30.33,SW,225,1.0,4.0,50,0.00,,,0.01,Wunderground v.1.15,2013-10-08 17:24:00,
2013-10-08 13:26:00,65.0,46.4,30.33,ESE,113,4.0,4.0,51,0.00,,,0.01,Wunderground v.1.15,2013-10-08 17:26:00,
2013-10-08 13:29:00,64.9,45.8,30.33,South,172,1.0,4.0,50,0.00,,,0.01,Wunderground v.1.15,2013-10-08 17:29:00,
2013-10-08 13:31:00,65.0,46.9,30.33,South,174,0.0,1.0,52,0.00,,,0.01,Wunderground v.1.15,2013-10-08 17:31:00,
2013-10-08 13:32:00,65.0,46.4,30.32,SE,143,2.0,4.0,51,0.00,,,0.01,Wunderground v.1.15,2013-10-08 17:32:00,
2013-10-08 13:33:00,65.0,46.4,30.32,SW,214,2.0,4.0,51,0.00,,,0.01,Wunderground v.1.15,2013-10-08 17:33:00,
2013-10-08 13:35:00,65.0,45.9,30.32,WSW,242,3.0,4.0,50,0.00,,,0.01,Wunderground v.1.15,2013-10-08 17:35:00,
2013-10-08 13:36:00,65.0,46.4,30.32,SW,222,0.0,4.0,51,0.00,,,0.01,Wunderground v.1.15,2013-10-08 17:36:00,
2013-10-08 13:37:00,65.0,46.9,30.32,SSW,204,5.0,5.0,52,0.00,,,0.01,Wunderground v.1.15,2013-10-08 17:37:00,
2013-10-08 13:38:00,65.0,45.9,30.32,West,270,1.0,5.0,50,0.00,,,0.01,Wunderground v.1.15,2013-10-08 17:38:00,
2013-10-08 13:40:00,65.0,46.4,30.32,SSW,197,3.0,3.0,51,0.00,,,0.01,Wunderground v.1.15,2013-10-08 17:40:00,
2013-10-08 13:41:00,65.0,45.9,30.32,SSW,212,1.0,3.0,50,0.00,,,0.01,Wunderground v.1.15,2013-10-08 17:41:00,
2013-10-08 13:42:00,64.9,45.8,30.32,West,274,3.0,6.0,50,0.00,,,0.01,Wunderground v.1.15,2013-10-08 17:42:00,
2013-10-08 13:43:00,64.9,45.8,30.32,ESE,110,0.0,6.0,50,0.00,,,0.01,Wunderground v.1.15,2013-10-08 17:43:00,
2013-10-08 13:46:00,64.9,46.3,30.32,SW,233,2.0,6.0,51,0.00,,,0.01,Wunderground v.1.15,2013-10-08 17:46:00,
2013-10-08 13:47:00,64.9,46.3,30.32,SW,229,0.0,6.0,51,0.00,,,0.01,Wunderground v.1.15,2013-10-08 17:47:00,
2013-10-08 13:49:00,64.9,46.3,30.32,SE,143,1.0,6.0,51,0.00,,,0.01,Wunderground v.1.15,2013-10-08 17:49:00,
2013-10-08 13:51:00,65.0,46.9,30.32,SSW,203,1.0,4.0,52,0.00,,,0.01,Wunderground v.1.15,2013-10-08 17:51:00,
2013-10-08 13:52:00,65.0,45.9,30.32,SSE,162,1.0,4.0,50,0.00,,,0.01,Wunderground v.1.15,2013-10-08 17:52:00,
2013-10-08 13:53:00,65.1,46.0,30.32,SSW,195,0.0,4.0,50,0.00,,,0.01,Wunderground v.1.15,2013-10-08 17:53:00,
2013-10-08 13:54:00,65.1,46.0,30.32,West,260,1.0,5.0,50,0.00,,,0.01,Wunderground v.1.15,2013-10-08 17:54:00,
2013-10-08 13:56:00,65.1,46.0,30.32,WSW,256,1.0,5.0,50,0.00,,,0.01,Wunderground v.1.15,2013-10-08 17:56:00,
2013-10-08 13:57:00,65.1,46.0,30.32,WSW,255,0.0,5.0,50,0.00,,,0.01,Wunderground v.1.15,2013-10-08 17:57:00,
2013-10-08 13:58:00,65.2,46.6,30.31,South,183,1.0,5.0,51,0.00,,,0.01,Wunderground v.1.15,2013-10-08 17:58:00,
2013-10-08 13:59:00,65.2,46.6,30.31,WSW,246,2.0,5.0,51,0.00,,,0.01,Wunderground v.1.15,2013-10-08 17:59:00,
2013-10-08 14:02:00,65.2,46.1,30.31,SW,235,2.0,7.0,50,0.00,,,0.01,Wunderground v.1.15,2013-10-08 18:02:00,
2013-10-08 14:03:00,65.1,46.5,30.31,West,269,2.0,7.0,51,0.00,,,0.01,Wunderground v.1.15,2013-10-08 18:03:00,
2013-10-08 14:04:00,65.1,46.0,30.31,SSE,154,1.0,7.0,50,0.00,,,0.01,Wunderground v.1.15,2013-10-08 18:04:00,
2013-10-08 14:07:00,65.1,46.5,30.31,SW,225,1.0,7.0,51,0.00,,,0.01,Wunderground v.1.15,2013-10-08 18:07:00,
2013-10-08 14:08:00,65.0,46.4,30.31,WSW,248,1.0,7.0,51,0.00,,,0.01,Wunderground v.1.15,2013-10-08 18:08:00,
2013-10-08 14:09:00,65.1,47.0,30.31,WSW,248,0.0,7.0,52,0.00,,,0.01,Wunderground v.1.15,2013-10-08 18:09:00,
2013-10-08 14:12:00,65.1,46.5,30.31,SSE,154,1.0,4.0,51,0.00,,,0.01,Wunderground v.1.15,2013-10-08 18:12:00,
2013-10-08 14:14:00,65.2,46.1,30.31,SW,229,0.0,4.0,50,0.00,,,0.01,Wunderground v.1.15,2013-10-08 18:14:00,
2013-10-08 14:15:00,65.3,46.7,30.31,South,172,1.0,4.0,51,0.00,,,0.01,Wunderground v.1.15,2013-10-08 18:15:00,
2013-10-08 14:17:00,65.4,46.8,30.31,West,274,0.0,4.0,51,0.00,,,0.01,Wunderground v.1.15,2013-10-08 18:17:00,
2013-10-08 14:19:00,65.6,47.5,30.31,SSE,152,1.0,4.0,52,0.00,,,0.01,Wunderground v.1.15,2013-10-08 18:19:00,
2013-10-08 14:20:00,65.8,47.7,30.30,South,180,1.0,3.0,52,0.00,,,0.01,Wunderground v.1.15,2013-10-08 18:20:00,
2013-10-08 14:22:00,65.9,47.3,30.30,West,279,1.0,3.0,51,0.00,,,0.01,Wunderground v.1.15,2013-10-08 18:22:00,
2013-10-08 14:24:00,65.9,46.2,30.30,SE,131,3.0,5.0,49,0.00,,,0.01,Wunderground v.1.15,2013-10-08 18:24:00,
2013-10-08 14:25:00,65.9,46.2,30.30,SSE,150,0.0,5.0,49,0.00,,,0.01,Wunderground v.1.15,2013-10-08 18:25:00,
2013-10-08 14:27:00,66.0,47.9,30.30,SSE,155,0.0,5.0,52,0.00,,,0.01,Wunderground v.1.15,2013-10-08 18:27:00,
2013-10-08 14:29:00,66.0,47.9,30.30,NNW,335,1.0,5.0,52,0.00,,,0.01,Wunderground v.1.15,2013-10-08 18:29:00,
2013-10-08 14:31:00,66.1,47.4,30.30,SW,214,1.0,2.0,51,0.00,,,0.01,Wunderground v.1.15,2013-10-08 18:31:00,
2013-10-08 14:32:00,66.2,47.5,30.30,WSW,239,0.0,3.0,51,0.00,,,0.01,Wunderground v.1.15,2013-10-08 18:32:00,
2013-10-08 14:33:00,66.3,48.1,30.30,SSW,210,0.0,3.0,52,0.00,,,0.01,Wunderground v.1.15,2013-10-08 18:33:00,
2013-10-08 14:35:00,66.3,47.6,30.30,South,185,2.0,3.0,51,0.00,,,0.01,Wunderground v.1.15,2013-10-08 18:35:00,
2013-10-08 14:36:00,66.4,47.7,30.30,West,267,0.0,3.0,51,0.00,,,0.01,Wunderground v.1.15,2013-10-08 18:36:00,
2013-10-08 14:37:00,66.4,48.2,30.30,SSE,158,3.0,4.0,52,0.00,,,0.01,Wunderground v.1.15,2013-10-08 18:37:00,
2013-10-08 14:38:00,66.4,47.2,30.30,South,177,0.0,4.0,50,0.00,,,0.01,Wunderground v.1.15,2013-10-08 18:38:00,
2013-10-08 14:40:00,66.5,46.7,30.30,ESE,122,1.0,2.0,49,0.00,,,0.01,Wunderground v.1.15,2013-10-08 18:40:00,
2013-10-08 14:41:00,66.5,47.3,30.30,ESE,121,0.0,2.0,50,0.00,,,0.01,Wunderground v.1.15,2013-10-08 18:41:00,
2013-10-08 14:42:00,66.7,47.5,30.30,ESE,108,1.0,4.0,50,0.00,,,0.01,Wunderground v.1.15,2013-10-08 18:42:00,
2013-10-08 14:43:00,66.7,47.5,30.30,SSW,211,1.0,4.0,50,0.00,,,0.01,Wunderground v.1.15,2013-10-08 18:43:00,
2013-10-08 14:45:00,66.8,47.0,30.30,South,176,0.0,5.0,49,0.00,,,0.01,Wunderground v.1.15,2013-10-08 18:45:00,
2013-10-08 14:47:00,66.8,47.0,30.30,SSW,212,4.0,5.0,49,0.00,,,0.01,Wunderground v.1.15,2013-10-08 18:47:00,
2013-10-08 14:48:00,66.8,45.9,30.30,SE,139,1.0,5.0,47,0.00,,,0.01,Wunderground v.1.15,2013-10-08 18:48:00,
2013-10-08 14:51:00,66.9,47.1,30.30,SW,233,2.0,2.0,49,0.00,,,0.01,Wunderground v.1.15,2013-10-08 18:51:00,
2013-10-08 14:52:00,66.9,47.6,30.30,SW,232,1.0,5.0,50,0.00,,,0.01,Wunderground v.1.15,2013-10-08 18:52:00,
2013-10-08 14:53:00,66.8,46.5,30.30,SW,226,1.0,5.0,48,0.00,,,0.01,Wunderground v.1.15,2013-10-08 18:53:00,
2013-10-08 14:54:00,66.8,46.5,30.30,WSW,243,2.0,5.0,48,0.00,,,0.01,Wunderground v.1.15,2013-10-08 18:54:00,
2013-10-08 14:56:00,66.7,46.4,30.30,WNW,285,2.0,5.0,48,0.00,,,0.01,Wunderground v.1.15,2013-10-08 18:56:00,
2013-10-08 14:57:00,66.5,46.7,30.30,SW,233,1.0,5.0,49,0.00,,,0.01,Wunderground v.1.15,2013-10-08 18:57:00,
2013-10-08 14:58:00,66.5,46.7,30.30,SW,229,2.0,5.0,49,0.00,,,0.01,Wunderground v.1.15,2013-10-08 18:58:00,
2013-10-08 14:59:00,66.4,46.1,30.30,SW,225,2.0,5.0,48,0.00,,,0.01,Wunderground v.1.15,2013-10-08 18:59:00,
2013-10-08 15:01:00,66.3,46.6,30.30,South,181,2.0,2.0,49,0.00,,,0.01,Wunderground v.1.15,2013-10-08 19:01:00,
2013-10-08 15:03:00,66.4,47.2,30.30,WSW,255,0.0,2.0,50,0.00,,,0.01,Wunderground v.1.15,2013-10-08 19:03:00,
2013-10-08 15:04:00,66.4,47.2,30.30,SW,236,2.0,5.0,50,0.00,,,0.01,Wunderground v.1.15,2013-10-08 19:04:00,
2013-10-08 15:05:00,66.4,47.2,30.30,SSW,205,0.0,5.0,50,0.00,,,0.01,Wunderground v.1.15,2013-10-08 19:05:00,
2013-10-08 15:06:00,66.5,46.7,30.30,SSE,148,4.0,6.0,49,0.00,,,0.01,Wunderground v.1.15,2013-10-08 19:06:00,
2013-10-08 15:08:00,66.5,46.2,30.30,WSW,254,1.0,6.0,48,0.00,,,0.01,Wunderground v.1.15,2013-10-08 19:08:00,
2013-10-08 15:09:00,66.5,46.7,30.30,NNE,28,4.0,6.0,49,0.00,,,0.01,Wunderground v.1.15,2013-10-08 19:09:00,
2013-10-08 15:11:00,66.6,46.8,30.30,ESE,122,2.0,3.0,49,0.00,,,0.01,Wunderground v.1.15,2013-10-08 19:11:00,
2013-10-08 15:13:00,66.5,46.2,30.30,SSE,159,2.0,4.0,48,0.00,,,0.01,Wunderground v.1.15,2013-10-08 19:13:00,
2013-10-08 15:14:00,66.5,47.3,30.30,ESE,103,1.0,4.0,50,0.00,,,0.01,Wunderground v.1.15,2013-10-08 19:14:00,
2013-10-08 15:16:00,66.6,46.8,30.30,SSE,165,1.0,4.0,49,0.00,,,0.01,Wunderground v.1.15,2013-10-08 19:16:00,
2013-10-08 15:17:00,66.6,46.8,30.30,SW,214,3.0,4.0,49,0.00,,,0.01,Wunderground v.1.15,2013-10-08 19:17:00,
2013-10-08 15:18:00,66.6,46.8,30.30,SSW,201,1.0,4.0,49,0.00,,,0.01,Wunderground v.1.15,2013-10-08 19:18:00,
2013-10-08 15:20:00,66.7,46.4,30.30,East,96,1.0,1.0,48,0.00,,,0.01,Wunderground v.1.15,2013-10-08 19:20:00,
2013-10-08 15:21:00,66.7,46.4,30.30,WSW,252,1.0,3.0,48,0.00,,,0.01,Wunderground v.1.15,2013-10-08 19:21:00,
2013-10-08 15:22:00,66.6,46.3,30.30,SW,231,0.0,3.0,48,0.00,,,0.01,Wunderground v.1.15,2013-10-08 19:22:00,
2013-10-08 15:23:00,66.7,47.5,30.30,West,262,3.0,3.0,50,0.00,,,0.01,Wunderground v.1.15,2013-10-08 19:23:00,
2013-10-08 15:25:00,66.7,46.9,30.30,SW,221,0.0,5.0,49,0.00,,,0.01,Wunderground v.1.15,2013-10-08 19:25:00,
2013-10-08 15:26:00,66.8,46.5,30.30,SW,229,0.0,5.0,48,0.00,,,0.01,Wunderground v.1.15,2013-10-08 19:26:00,
2013-10-08 15:27:00,66.8,47.0,30.30,SSW,207,2.0,5.0,49,0.00,,,0.01,Wunderground v.1.15,2013-10-08 19:27:00,
2013-10-08 15:28:00,66.9,46.6,30.30,SW,215,0.0,5.0,48,0.00,,,0.01,Wunderground v.1.15,2013-10-08 19:28:00,
2013-10-08 15:30:00,67.0,47.2,30.30,SE,139,2.0,2.0,49,0.00,,,0.01,Wunderground v.1.15,2013-10-08 19:30:00,
2013-10-08 15:31:00,67.1,46.7,30.30,SSW,211,2.0,2.0,48,0.00,,,0.01,Wunderground v.1.15,2013-10-08 19:31:00,
2013-10-08 15:32:00,67.1,46.7,30.30,South,172,1.0,2.0,48,0.00,,,0.01,Wunderground v.1.15,2013-10-08 19:32:00,
2013-10-08 15:33:00,67.1,46.2,30.30,SW,219,1.0,6.0,47,0.00,,,0.01,Wunderground v.1.15,2013-10-08 19:33:00,
2013-10-08 15:35:00,67.1,46.7,30.30,SSE,151,1.0,6.0,48,0.00,,,0.01,Wunderground v.1.15,2013-10-08 19:35:00,
2013-10-08 15:36:00,67.1,45.6,30.30,East,101,1.0,6.0,46,0.00,,,0.01,Wunderground v.1.15,2013-10-08 19:36:00,
2013-10-08 15:37:00,67.1,45.6,30.30,SW,226,2.0,6.0,46,0.00,,,0.01,Wunderground v.1.15,2013-10-08 19:37:00,
2013-10-08 15:39:00,67.1,46.7,30.29,WSW,239,2.0,6.0,48,0.00,,,0.01,Wunderground v.1.15,2013-10-08 19:39:00,
2013-10-08 15:40:00,67.1,47.3,30.29,WSW,242,1.0,1.0,49,0.00,,,0.01,Wunderground v.1.15,2013-10-08 19:40:00,
2013-10-08 15:42:00,67.1,47.3,30.29,East,84,1.0,2.0,49,0.00,,,0.01,Wunderground v.1.15,2013-10-08 19:42:00,
2013-10-08 15:44:00,67.2,47.4,30.29,West,264,2.0,3.0,49,0.00,,,0.01,Wunderground v.1.15,2013-10-08 19:44:00,
2013-10-08 15:45:00,67.1,46.2,30.29,SW,225,1.0,3.0,47,0.00,,,0.01,Wunderground v.1.15,2013-10-08 19:45:00,
2013-10-08 15:46:00,67.1,46.2,30.29,WSW,256,1.0,3.0,47,0.00,,,0.01,Wunderground v.1.15,2013-10-08 19:46:00,
2013-10-08 15:47:00,67.1,46.2,30.29,WSW,240,2.0,3.0,47,0.00,,,0.01,Wunderground v.1.15,2013-10-08 19:47:00,
2013-10-08 15:49:00,67.1,46.2,30.29,SSW,208,0.0,3.0,47,0.00,,,0.01,Wunderground v.1.15,2013-10-08 19:49:00,
2013-10-08 15:50:00,67.1,46.2,30.29,SW,215,1.0,5.0,47,0.00,,,0.01,Wunderground v.1.15,2013-10-08 19:50:00,
2013-10-08 15:51:00,67.1,46.7,30.29,SSE,163,1.0,5.0,48,0.00,,,0.01,Wunderground v.1.15,2013-10-08 19:51:00,
2013-10-08 15:52:00,67.1,46.7,30.29,ENE,74,1.0,5.0,48,0.00,,,0.01,Wunderground v.1.15,2013-10-08 19:52:00,
2013-10-08 15:53:00,67.1,46.7,30.29,ENE,73,0.0,5.0,48,0.00,,,0.01,Wunderground v.1.15,2013-10-08 19:53:00,
2013-10-08 15:54:00,67.1,46.2,30.29,WSW,249,2.0,5.0,47,0.00,,,0.01,Wunderground v.1.15,2013-10-08 19:54:00,
2013-10-08 15:55:00,67.1,46.2,30.29,WSW,248,0.0,5.0,47,0.00,,,0.01,Wunderground v.1.15,2013-10-08 19:55:00,
2013-10-08 15:56:00,67.1,46.2,30.29,WSW,238,1.0,5.0,47,0.00,,,0.01,Wunderground v.1.15,2013-10-08 19:56:00,
2013-10-08 15:57:00,67.1,46.7,30.29,SE,145,2.0,5.0,48,0.00,,,0.01,Wunderground v.1.15,2013-10-08 19:57:00,
2013-10-08 15:58:00,67.1,46.7,30.29,SE,139,0.0,5.0,48,0.00,,,0.01,Wunderground v.1.15,2013-10-08 19:58:00,
2013-10-08 15:59:00,67.1,46.2,30.29,East,84,1.0,5.0,47,0.00,,,0.01,Wunderground v.1.15,2013-10-08 19:59:00,
2013-10-08 16:01:00,67.1,46.7,30.29,SSE,150,2.0,2.0,48,0.00,,,0.01,Wunderground v.1.15,2013-10-08 20:01:00,
2013-10-08 16:02:00,67.0,46.7,30.29,SE,143,2.0,2.0,48,0.00,,,0.01,Wunderground v.1.15,2013-10-08 20:02:00,
2013-10-08 16:03:00,67.0,45.5,30.29,SE,143,2.0,3.0,46,0.00,,,0.01,Wunderground v.1.15,2013-10-08 20:03:00,
2013-10-08 16:04:00,67.0,45.5,30.29,South,184,0.0,3.0,46,0.00,,,0.01,Wunderground v.1.15,2013-10-08 20:04:00,
2013-10-08 16:05:00,67.0,45.5,30.29,ESE,118,1.0,3.0,46,0.00,,,0.01,Wunderground v.1.15,2013-10-08 20:05:00,
2013-10-08 16:06:00,67.1,46.2,30.29,SSE,161,3.0,3.0,47,0.00,,,0.01,Wunderground v.1.15,2013-10-08 20:06:00,
2013-10-08 16:07:00,67.1,46.2,30.29,SSE,151,1.0,3.0,47,0.00,,,0.01,Wunderground v.1.15,2013-10-08 20:07:00,
2013-10-08 16:08:00,67.2,45.7,30.29,SE,141,2.0,3.0,46,0.00,,,0.01,Wunderground v.1.15,2013-10-08 20:08:00,
2013-10-08 16:09:00,67.2,46.3,30.29,SE,134,1.0,3.0,47,0.00,,,0.01,Wunderground v.1.15,2013-10-08 20:09:00,
2013-10-08 16:10:00,67.3,46.4,30.29,SSE,148,2.0,2.0,47,0.00,,,0.01,Wunderground v.1.15,2013-10-08 20:10:00,
2013-10-08 16:11:00,67.3,45.8,30.29,SSE,162,0.0,3.0,46,0.00,,,0.01,Wunderground v.1.15,2013-10-08 20:11:00,
2013-10-08 16:12:00,67.4,46.5,30.29,SSE,165,0.0,3.0,47,0.00,,,0.01,Wunderground v.1.15,2013-10-08 20:12:00,
2013-10-08 16:13:00,67.5,45.4,30.29,SE,131,1.0,4.0,45,0.00,,,0.01,Wunderground v.1.15,2013-10-08 20:13:00,
2013-10-08 16:14:00,67.5,46.0,30.29,SE,131,1.0,4.0,46,0.00,,,0.01,Wunderground v.1.15,2013-10-08 20:14:00,
2013-10-08 16:15:00,67.6,46.1,30.29,SE,131,0.0,4.0,46,0.00,,,0.01,Wunderground v.1.15,2013-10-08 20:15:00,
2013-10-08 16:16:00,67.6,46.6,30.29,SSW,208,1.0,4.0,47,0.00,,,0.01,Wunderground v.1.15,2013-10-08 20:16:00,
2013-10-08 16:17:00,67.7,46.2,30.29,SE,129,1.0,4.0,46,0.00,,,0.01,Wunderground v.1.15,2013-10-08 20:17:00,
2013-10-08 16:18:00,67.7,46.2,30.29,SE,146,2.0,4.0,46,0.00,,,0.01,Wunderground v.1.15,2013-10-08 20:18:00,
2013-10-08 16:20:00,67.6,45.5,30.29,SSW,212,2.0,8.0,45,0.00,,,0.01,Wunderground v.1.15,2013-10-08 20:20:00,
2013-10-08 16:21:00,67.5,45.4,30.29,SE,143,0.0,8.0,45,0.00,,,0.01,Wunderground v.1.15,2013-10-08 20:21:00,
2013-10-08 16:23:00,67.4,45.3,30.29,ESE,113,0.0,8.0,45,0.00,,,0.01,Wunderground v.1.15,2013-10-08 20:23:00,
2013-10-08 16:24:00,67.3,45.8,30.29,West,277,1.0,8.0,46,0.00,,,0.01,Wunderground v.1.15,2013-10-08 20:24:00,
2013-10-08 16:25:00,67.2,45.1,30.29,NE,36,0.0,8.0,45,0.00,,,0.01,Wunderground v.1.15,2013-10-08 20:25:00,
2013-10-08 16:26:00,67.2,45.7,30.29,NE,44,0.0,8.0,46,0.00,,,0.01,Wunderground v.1.15,2013-10-08 20:26:00,
2013-10-08 16:28:00,66.9,45.4,30.29,SW,215,1.0,8.0,46,0.00,,,0.01,Wunderground v.1.15,2013-10-08 20:28:00,
2013-10-08 16:29:00,66.8,45.3,30.29,SW,233,1.0,8.0,46,0.00,,,0.01,Wunderground v.1.15,2013-10-08 20:29:00,
2013-10-08 16:30:00,66.7,44.7,30.29,SW,233,1.0,2.0,45,0.00,,,0.01,Wunderground v.1.15,2013-10-08 20:30:00,
2013-10-08 16:31:00,66.6,45.2,30.28,SW,224,1.0,2.0,46,0.00,,,0.01,Wunderground v.1.15,2013-10-08 20:31:00,
2013-10-08 16:34:00,66.3,45.5,30.28,SW,226,1.0,2.0,47,0.00,,,0.01,Wunderground v.1.15,2013-10-08 20:34:00,
2013-10-08 16:35:00,66.1,44.7,30.29,SE,135,2.0,2.0,46,0.00,,,0.01,Wunderground v.1.15,2013-10-08 20:35:00,
2013-10-08 16:36:00,66.0,44.6,30.29,SSE,166,1.0,2.0,46,0.00,,,0.01,Wunderground v.1.15,2013-10-08 20:36:00,
2013-10-08 16:37:00,66.0,44.6,30.29,SSE,153,2.0,5.0,46,0.00,,,0.01,Wunderground v.1.15,2013-10-08 20:37:00,
2013-10-08 16:40:00,65.7,44.3,30.29,SSW,211,2.0,2.0,46,0.00,,,0.01,Wunderground v.1.15,2013-10-08 20:40:00,
2013-10-08 16:41:00,65.5,44.7,30.29,South,188,0.0,2.0,47,0.00,,,0.01,Wunderground v.1.15,2013-10-08 20:41:00,
2013-10-08 16:42:00,65.5,45.3,30.29,South,186,0.0,2.0,48,0.00,,,0.01,Wunderground v.1.15,2013-10-08 20:42:00,
2013-10-08 16:45:00,65.3,44.5,30.29,SW,229,0.0,5.0,47,0.00,,,0.01,Wunderground v.1.15,2013-10-08 20:45:00,
2013-10-08 16:47:00,65.2,43.9,30.29,SW,233,1.0,5.0,46,0.00,,,0.01,Wunderground v.1.15,2013-10-08 20:47:00,
2013-10-08 16:48:00,65.1,43.8,30.29,SW,236,1.0,5.0,46,0.00,,,0.01,Wunderground v.1.15,2013-10-08 20:48:00,
2013-10-08 16:50:00,64.9,44.7,30.29,East,101,1.0,1.0,48,0.00,,,0.01,Wunderground v.1.15,2013-10-08 20:50:00,
2013-10-08 16:52:00,64.8,44.6,30.29,ESE,106,1.0,3.0,48,0.00,,,0.01,Wunderground v.1.15,2013-10-08 20:52:00,
2013-10-08 16:53:00,64.8,44.1,30.29,WSW,239,4.0,4.0,47,0.00,,,0.01,Wunderground v.1.15,2013-10-08 20:53:00,
2013-10-08 16:55:00,64.7,44.0,30.29,East,101,2.0,4.0,47,0.00,,,0.01,Wunderground v.1.15,2013-10-08 20:55:00,
2013-10-08 16:56:00,64.7,44.5,30.29,SE,129,1.0,4.0,48,0.00,,,0.01,Wunderground v.1.15,2013-10-08 20:56:00,
2013-10-08 16:57:00,64.6,44.5,30.29,SSE,150,3.0,4.0,48,0.00,,,0.01,Wunderground v.1.15,2013-10-08 20:57:00,
2013-10-08 16:59:00,64.6,43.9,30.29,SSE,167,3.0,4.0,47,0.00,,,0.01,Wunderground v.1.15,2013-10-08 20:59:00,
2013-10-08 17:00:00,64.5,44.4,30.29,South,186,2.0,3.0,48,0.00,,,0.01,Wunderground v.1.15,2013-10-08 21:00:00,
2013-10-08 17:01:00,64.5,44.4,30.29,SSW,210,0.0,3.0,48,0.00,,,0.01,Wunderground v.1.15,2013-10-08 21:01:00,
2013-10-08 17:02:00,64.5,44.4,30.29,SW,226,1.0,3.0,48,0.00,,,0.01,Wunderground v.1.15,2013-10-08 21:02:00,
2013-10-08 17:05:00,64.4,44.8,30.29,SW,235,0.0,3.0,49,0.00,,,0.01,Wunderground v.1.15,2013-10-08 21:05:00,
2013-10-08 17:06:00,64.3,44.2,30.29,SW,219,1.0,3.0,48,0.00,,,0.01,Wunderground v.1.15,2013-10-08 21:06:00,
2013-10-08 17:07:00,64.3,43.6,30.29,SW,236,0.0,3.0,47,0.00,,,0.01,Wunderground v.1.15,2013-10-08 21:07:00,
2013-10-08 17:08:00,64.2,43.5,30.29,WSW,238,1.0,3.0,47,0.00,,,0.01,Wunderground v.1.15,2013-10-08 21:08:00,
2013-10-08 17:10:00,64.1,44.0,30.29,WSW,239,2.0,2.0,48,0.00,,,0.01,Wunderground v.1.15,2013-10-08 21:10:00,
2013-10-08 17:11:00,64.1,44.0,30.29,WSW,238,1.0,2.0,48,0.00,,,0.01,Wunderground v.1.15,2013-10-08 21:11:00,
2013-10-08 17:12:00,63.9,43.3,30.29,SW,236,1.0,2.0,47,0.00,,,0.01,Wunderground v.1.15,2013-10-08 21:12:00,
2013-10-08 17:13:00,63.9,43.3,30.29,SSW,210,0.0,2.0,47,0.00,,,0.01,Wunderground v.1.15,2013-10-08 21:13:00,
2013-10-08 17:16:00,63.8,43.2,30.29,SW,236,1.0,2.0,47,0.00,,,0.01,Wunderground v.1.15,2013-10-08 21:16:00,
2013-10-08 17:17:00,63.7,43.6,30.29,SSE,160,1.0,3.0,48,0.00,,,0.01,Wunderground v.1.15,2013-10-08 21:17:00,
2013-10-08 17:18:00,63.7,43.6,30.29,WSW,238,1.0,3.0,48,0.00,,,0.01,Wunderground v.1.15,2013-10-08 21:18:00,
2013-10-08 17:21:00,63.6,43.5,30.29,WSW,252,1.0,2.0,48,0.00,,,0.01,Wunderground v.1.15,2013-10-08 21:21:00,
2013-10-08 17:22:00,63.6,44.1,30.29,WSW,248,0.0,2.0,49,0.00,,,0.01,Wunderground v.1.15,2013-10-08 21:22:00,
2013-10-08 17:23:00,63.6,44.1,30.29,South,188,0.0,2.0,49,0.00,,,0.01,Wunderground v.1.15,2013-10-08 21:23:00,
2013-10-08 17:26:00,63.4,43.9,30.29,SSW,205,0.0,2.0,49,0.00,,,0.01,Wunderground v.1.15,2013-10-08 21:26:00,
2013-10-08 17:27:00,63.4,44.4,30.29,SSW,205,0.0,2.0,50,0.00,,,0.01,Wunderground v.1.15,2013-10-08 21:27:00,
2013-10-08 17:28:00,63.3,43.8,30.29,West,262,0.0,2.0,49,0.00,,,0.01,Wunderground v.1.15,2013-10-08 21:28:00,
2013-10-08 17:31:00,63.2,44.2,30.29,WSW,243,1.0,2.0,50,0.00,,,0.01,Wunderground v.1.15,2013-10-08 21:31:00,
2013-10-08 17:32:00,63.2,44.2,30.29,SW,235,1.0,2.0,50,0.00,,,0.01,Wunderground v.1.15,2013-10-08 21:32:00,
2013-10-08 17:33:00,63.1,44.2,30.29,SW,235,0.0,2.0,50,0.00,,,0.01,Wunderground v.1.15,2013-10-08 21:33:00,
2013-10-08 17:36:00,63.0,44.1,30.29,West,269,1.0,2.0,50,0.00,,,0.01,Wunderground v.1.15,2013-10-08 21:36:00,
2013-10-08 17:37:00,63.0,44.1,30.29,SSW,204,1.0,2.0,50,0.00,,,0.01,Wunderground v.1.15,2013-10-08 21:37:00,
2013-10-08 17:38:00,62.9,44.5,30.29,SSW,203,0.0,2.0,51,0.00,,,0.01,Wunderground v.1.15,2013-10-08 21:38:00,
2013-10-08 17:39:00,62.9,44.5,30.29,South,181,0.0,2.0,51,0.00,,,0.01,Wunderground v.1.15,2013-10-08 21:39:00,
2013-10-08 17:42:00,62.8,43.9,30.29,SW,233,0.0,2.0,50,0.00,,,0.01,Wunderground v.1.15,2013-10-08 21:42:00,
2013-10-08 17:44:00,62.7,43.8,30.29,SW,224,1.0,2.0,50,0.00,,,0.01,Wunderground v.1.15,2013-10-08 21:44:00,
2013-10-08 17:47:00,62.6,43.7,30.29,SW,215,0.0,2.0,50,0.00,,,0.01,Wunderground v.1.15,2013-10-08 21:47:00,
2013-10-08 17:49:00,62.6,43.7,30.29,SW,218,0.0,2.0,50,0.00,,,0.01,Wunderground v.1.15,2013-10-08 21:49:00,
2013-10-08 17:52:00,62.5,44.1,30.29,WNW,294,0.0,2.0,51,0.00,,,0.01,Wunderground v.1.15,2013-10-08 21:52:00,
2013-10-08 17:54:00,62.4,43.5,30.29,South,191,1.0,2.0,50,0.00,,,0.01,Wunderground v.1.15,2013-10-08 21:54:00,
2013-10-08 17:55:00,62.4,44.0,30.29,WSW,245,0.0,2.0,51,0.00,,,0.01,Wunderground v.1.15,2013-10-08 21:55:00,
2013-10-08 17:57:00,62.3,43.4,30.29,South,177,1.0,2.0,50,0.00,,,0.01,Wunderground v.1.15,2013-10-08 21:57:00,
2013-10-08 17:58:00,62.3,43.4,30.29,South,177,0.0,2.0,50,0.00,,,0.01,Wunderground v.1.15,2013-10-08 21:58:00,
2013-10-08 18:00:00,62.2,43.8,30.29,SW,229,0.0,1.0,51,0.00,,,0.01,Wunderground v.1.15,2013-10-08 22:00:00,
2013-10-08 18:01:00,62.1,43.7,30.29,SE,127,1.0,2.0,51,0.00,,,0.01,Wunderground v.1.15,2013-10-08 22:01:00,
2013-10-08 18:02:00,62.1,43.7,30.29,SE,146,0.0,3.0,51,0.00,,,0.01,Wunderground v.1.15,2013-10-08 22:02:00,
2013-10-08 18:03:00,62.1,43.7,30.29,SE,145,0.0,3.0,51,0.00,,,0.01,Wunderground v.1.15,2013-10-08 22:03:00,
2013-10-08 18:04:00,62.1,43.7,30.29,SE,145,0.0,3.0,51,0.00,,,0.01,Wunderground v.1.15,2013-10-08 22:04:00,
2013-10-08 18:05:00,62.1,43.7,30.29,SSE,155,0.0,3.0,51,0.00,,,0.01,Wunderground v.1.15,2013-10-08 22:05:00,
2013-10-08 18:06:00,62.0,43.7,30.29,SSE,155,0.0,3.0,51,0.00,,,0.01,Wunderground v.1.15,2013-10-08 22:06:00,
2013-10-08 18:07:00,61.9,43.6,30.29,WSW,246,1.0,4.0,51,0.00,,,0.01,Wunderground v.1.15,2013-10-08 22:07:00,
2013-10-08 18:08:00,61.9,43.6,30.29,WSW,246,0.0,4.0,51,0.00,,,0.01,Wunderground v.1.15,2013-10-08 22:08:00,
2013-10-08 18:09:00,61.8,43.5,30.29,WSW,246,0.0,4.0,51,0.00,,,0.01,Wunderground v.1.15,2013-10-08 22:09:00,
2013-10-08 18:11:00,61.8,44.5,30.29,WSW,240,0.0,1.0,53,0.00,,,0.01,Wunderground v.1.15,2013-10-08 22:11:00,
2013-10-08 18:12:00,61.7,44.4,30.29,South,191,1.0,2.0,53,0.00,,,0.01,Wunderground v.1.15,2013-10-08 22:12:00,
2013-10-08 18:14:00,61.5,43.7,30.29,WSW,246,1.0,3.0,52,0.00,,,0.01,Wunderground v.1.15,2013-10-08 22:14:00,
2013-10-08 18:15:00,61.5,43.7,30.29,SSE,159,2.0,3.0,52,0.00,,,0.01,Wunderground v.1.15,2013-10-08 22:15:00,
2013-10-08 18:16:00,61.4,43.1,30.29,SSE,165,0.0,3.0,51,0.00,,,0.01,Wunderground v.1.15,2013-10-08 22:16:00,
2013-10-08 18:17:00,61.4,43.1,30.29,SSE,165,0.0,3.0,51,0.00,,,0.01,Wunderground v.1.15,2013-10-08 22:17:00,
2013-10-08 18:19:00,61.3,43.0,30.29,SW,224,1.0,3.0,51,0.00,,,0.01,Wunderground v.1.15,2013-10-08 22:19:00,
2013-10-08 18:20:00,61.3,43.0,30.29,South,183,0.0,1.0,51,0.00,,,0.01,Wunderground v.1.15,2013-10-08 22:20:00,
2013-10-08 18:21:00,61.3,43.0,30.30,SSE,160,2.0,2.0,51,0.00,,,0.01,Wunderground v.1.15,2013-10-08 22:21:00,
2013-10-08 18:22:00,61.3,43.5,30.29,SSE,160,0.0,2.0,52,0.00,,,0.01,Wunderground v.1.15,2013-10-08 22:22:00,
2013-10-08 18:25:00,61.1,43.3,30.30,SSE,161,0.0,2.0,52,0.00,,,0.01,Wunderground v.1.15,2013-10-08 22:25:00,
2013-10-08 18:27:00,61.1,43.3,30.29,ESE,120,0.0,2.0,52,0.00,,,0.01,Wunderground v.1.15,2013-10-08 22:27:00,
2013-10-08 18:30:00,60.8,44.0,30.29,SSE,148,0.0,0.0,54,0.00,,,0.01,Wunderground v.1.15,2013-10-08 22:30:00,
2013-10-08 18:31:00,60.7,43.9,30.29,SSE,148,0.0,0.0,54,0.00,,,0.01,Wunderground v.1.15,2013-10-08 22:31:00,
2013-10-08 18:32:00,60.6,43.9,30.29,SSE,148,0.0,0.0,54,0.00,,,0.01,Wunderground v.1.15,2013-10-08 22:32:00,
2013-10-08 18:33:00,60.6,43.9,30.29,SSE,148,0.0,0.0,54,0.00,,,0.01,Wunderground v.1.15,2013-10-08 22:33:00,
2013-10-08 18:36:00,60.4,43.7,30.29,SSE,149,0.0,1.0,54,0.00,,,0.01,Wunderground v.1.15,2013-10-08 22:36:00,
2013-10-08 18:37:00,60.3,43.6,30.29,SSE,150,0.0,1.0,54,0.00,,,0.01,Wunderground v.1.15,2013-10-08 22:37:00,
2013-10-08 18:38:00,60.2,43.5,30.29,SW,226,0.0,1.0,54,0.00,,,0.01,Wunderground v.1.15,2013-10-08 22:38:00,
2013-10-08 18:41:00,59.9,43.2,30.29,SE,132,0.0,4.0,54,0.00,,,0.01,Wunderground v.1.15,2013-10-08 22:41:00,
2013-10-08 18:42:00,59.8,43.1,30.29,South,172,0.0,4.0,54,0.00,,,0.01,Wunderground v.1.15,2013-10-08 22:42:00,
2013-10-08 18:43:00,59.7,43.0,30.29,South,172,0.0,4.0,54,0.00,,,0.01,Wunderground v.1.15,2013-10-08 22:43:00,
2013-10-08 18:44:00,59.7,43.0,30.29,South,170,0.0,4.0,54,0.00,,,0.01,Wunderground v.1.15,2013-10-08 22:44:00,
2013-10-08 18:46:00,59.6,42.9,30.29,SW,226,1.0,4.0,54,0.00,,,0.01,Wunderground v.1.15,2013-10-08 22:46:00,
2013-10-08 18:47:00,59.5,42.8,30.29,SW,225,0.0,4.0,54,0.00,,,0.01,Wunderground v.1.15,2013-10-08 22:47:00,
2013-10-08 18:48:00,59.5,42.8,30.29,SW,225,0.0,4.0,54,0.00,,,0.01,Wunderground v.1.15,2013-10-08 22:48:00,
2013-10-08 18:49:00,59.4,43.7,30.29,SW,225,0.0,4.0,56,0.00,,,0.01,Wunderground v.1.15,2013-10-08 22:49:00,
2013-10-08 18:51:00,59.2,43.5,30.29,SW,226,0.0,0.0,56,0.00,,,0.01,Wunderground v.1.15,2013-10-08 22:51:00,
2013-10-08 18:52:00,59.2,43.5,30.29,SW,225,0.0,0.0,56,0.00,,,0.01,Wunderground v.1.15,2013-10-08 22:52:00,
2013-10-08 18:53:00,59.1,43.9,30.29,SW,226,0.0,0.0,57,0.00,,,0.01,Wunderground v.1.15,2013-10-08 22:53:00,
2013-10-08 18:54:00,59.0,43.3,30.29,SW,226,0.0,0.0,56,0.00,,,0.01,Wunderground v.1.15,2013-10-08 22:54:00,
2013-10-08 18:56:00,58.8,43.6,30.29,SW,226,0.0,0.0,57,0.00,,,0.01,Wunderground v.1.15,2013-10-08 22:56:00,
2013-10-08 18:57:00,58.7,43.5,30.29,SW,226,0.0,0.0,57,0.00,,,0.01,Wunderground v.1.15,2013-10-08 22:57:00,
2013-10-08 18:58:00,58.6,43.9,30.29,SW,226,0.0,0.0,58,0.00,,,0.01,Wunderground v.1.15,2013-10-08 22:58:00,
2013-10-08 18:59:00,58.5,43.8,30.29,SW,226,0.0,0.0,58,0.00,,,0.01,Wunderground v.1.15,2013-10-08 22:59:00,
2013-10-08 19:00:00,58.5,43.8,30.29,SW,226,0.0,0.0,58,0.00,,,0.01,Wunderground v.1.15,2013-10-08 23:00:00,
2013-10-08 19:02:00,58.3,44.0,30.30,SW,226,0.0,0.0,59,0.00,,,0.01,Wunderground v.1.15,2013-10-08 23:02:00,
2013-10-08 19:03:00,58.1,43.8,30.30,SW,226,0.0,0.0,59,0.00,,,0.01,Wunderground v.1.15,2013-10-08 23:03:00,
2013-10-08 19:04:00,58.0,43.7,30.30,SW,226,0.0,0.0,59,0.00,,,0.01,Wunderground v.1.15,2013-10-08 23:04:00,
2013-10-08 19:05:00,57.9,43.7,30.30,SW,226,0.0,0.0,59,0.00,,,0.01,Wunderground v.1.15,2013-10-08 23:05:00,
2013-10-08 19:06:00,57.7,43.5,30.30,SW,226,0.0,0.0,59,0.00,,,0.01,Wunderground v.1.15,2013-10-08 23:06:00,
2013-10-08 19:07:00,57.6,43.4,30.30,SW,226,0.0,0.0,59,0.00,,,0.01,Wunderground v.1.15,2013-10-08 23:07:00,
2013-10-08 19:08:00,57.4,44.1,30.30,SW,226,0.0,0.0,61,0.00,,,0.01,Wunderground v.1.15,2013-10-08 23:08:00,
2013-10-08 19:09:00,57.3,44.0,30.30,SW,226,0.0,0.0,61,0.00,,,0.01,Wunderground v.1.15,2013-10-08 23:09:00,
2013-10-08 19:10:00,57.2,43.9,30.30,SW,226,0.0,0.0,61,0.00,,,0.01,Wunderground v.1.15,2013-10-08 23:10:00,
2013-10-08 19:12:00,57.0,44.1,30.30,SW,226,0.0,0.0,62,0.00,,,0.01,Wunderground v.1.15,2013-10-08 23:12:00,
2013-10-08 19:13:00,56.7,43.4,30.30,SW,226,0.0,0.0,61,0.00,,,0.01,Wunderground v.1.15,2013-10-08 23:13:00,
2013-10-08 19:14:00,56.7,43.4,30.30,SW,226,0.0,0.0,61,0.00,,,0.01,Wunderground v.1.15,2013-10-08 23:14:00,
2013-10-08 19:15:00,56.5,43.2,30.30,SW,226,0.0,0.0,61,0.00,,,0.01,Wunderground v.1.15,2013-10-08 23:15:00,
2013-10-08 19:17:00,56.3,43.0,30.30,SW,226,0.0,0.0,61,0.00,,,0.01,Wunderground v.1.15,2013-10-08 23:17:00,
2013-10-08 19:19:00,56.1,43.3,30.30,SW,226,0.0,0.0,62,0.00,,,0.01,Wunderground v.1.15,2013-10-08 23:19:00,
2013-10-08 19:21:00,55.9,43.5,30.30,SW,226,0.0,0.0,63,0.00,,,0.01,Wunderground v.1.15,2013-10-08 23:21:00,
2013-10-08 19:22:00,55.8,43.4,30.30,SW,226,0.0,0.0,63,0.00,,,0.01,Wunderground v.1.15,2013-10-08 23:22:00,
2013-10-08 19:24:00,55.6,43.6,30.30,SW,226,0.0,0.0,64,0.00,,,0.01,Wunderground v.1.15,2013-10-08 23:24:00,
2013-10-08 19:25:00,55.4,43.4,30.30,SW,226,0.0,0.0,64,0.00,,,0.01,Wunderground v.1.15,2013-10-08 23:25:00,
2013-10-08 19:26:00,55.4,43.4,30.30,SW,226,0.0,0.0,64,0.00,,,0.01,Wunderground v.1.15,2013-10-08 23:26:00,
2013-10-08 19:27:00,55.2,43.6,30.30,SW,226,0.0,0.0,65,0.00,,,0.01,Wunderground v.1.15,2013-10-08 23:27:00,
2013-10-08 19:29:00,55.1,43.5,30.30,SW,226,0.0,0.0,65,0.00,,,0.01,Wunderground v.1.15,2013-10-08 23:29:00,
2013-10-08 19:30:00,54.9,43.4,30.30,SW,226,0.0,0.0,65,0.00,,,0.01,Wunderground v.1.15,2013-10-08 23:30:00,
2013-10-08 19:31:00,54.8,43.3,30.30,SW,226,0.0,0.0,65,0.00,,,0.01,Wunderground v.1.15,2013-10-08 23:31:00,
2013-10-08 19:32:00,54.7,43.2,30.30,SW,226,0.0,0.0,65,0.00,,,0.01,Wunderground v.1.15,2013-10-08 23:32:00,
2013-10-08 19:33:00,54.6,43.1,30.30,SW,226,0.0,0.0,65,0.00,,,0.01,Wunderground v.1.15,2013-10-08 23:33:00,
2013-10-08 19:34:00,54.6,43.1,30.30,SW,226,0.0,0.0,65,0.00,,,0.01,Wunderground v.1.15,2013-10-08 23:34:00,
2013-10-08 19:36:00,54.4,43.3,30.30,SW,226,0.0,0.0,66,0.00,,,0.01,Wunderground v.1.15,2013-10-08 23:36:00,
2013-10-08 19:37:00,54.3,43.2,30.30,SW,226,0.0,0.0,66,0.00,,,0.01,Wunderground v.1.15,2013-10-08 23:37:00,
2013-10-08 19:39:00,54.2,43.5,30.30,SW,226,0.0,0.0,67,0.00,,,0.01,Wunderground v.1.15,2013-10-08 23:39:00,
2013-10-08 19:41:00,54.0,43.3,30.30,SW,226,0.0,0.0,67,0.00,,,0.01,Wunderground v.1.15,2013-10-08 23:41:00,
2013-10-08 19:43:00,53.9,43.2,30.30,SW,226,0.0,0.0,67,0.00,,,0.01,Wunderground v.1.15,2013-10-08 23:43:00,
2013-10-08 19:44:00,53.7,43.4,30.30,SW,226,0.0,0.0,68,0.00,,,0.01,Wunderground v.1.15,2013-10-08 23:44:00,
2013-10-08 19:45:00,53.7,43.4,30.30,SW,226,0.0,0.0,68,0.00,,,0.01,Wunderground v.1.15,2013-10-08 23:45:00,
2013-10-08 19:46:00,53.6,43.7,30.30,SW,226,0.0,0.0,69,0.00,,,0.01,Wunderground v.1.15,2013-10-08 23:46:00,
2013-10-08 19:47:00,53.6,43.7,30.30,SW,225,0.0,0.0,69,0.00,,,0.01,Wunderground v.1.15,2013-10-08 23:47:00,
2013-10-08 19:48:00,53.5,44.0,30.30,SW,226,0.0,0.0,70,0.00,,,0.01,Wunderground v.1.15,2013-10-08 23:48:00,
2013-10-08 19:49:00,53.4,43.9,30.30,SW,226,0.0,0.0,70,0.00,,,0.01,Wunderground v.1.15,2013-10-08 23:49:00,
2013-10-08 19:50:00,53.4,43.9,30.30,SW,226,0.0,0.0,70,0.00,,,0.01,Wunderground v.1.15,2013-10-08 23:50:00,
2013-10-08 19:51:00,53.3,43.8,30.30,SW,226,0.0,0.0,70,0.00,,,0.01,Wunderground v.1.15,2013-10-08 23:51:00,
2013-10-08 19:52:00,53.2,43.7,30.30,SW,226,0.0,0.0,70,0.00,,,0.01,Wunderground v.1.15,2013-10-08 23:52:00,
2013-10-08 19:55:00,53.0,43.5,30.30,SW,226,0.0,0.0,70,0.00,,,0.01,Wunderground v.1.15,2013-10-08 23:55:00,
2013-10-08 19:57:00,52.8,43.3,30.30,SW,226,0.0,0.0,70,0.00,,,0.01,Wunderground v.1.15,2013-10-08 23:57:00,
2013-10-08 19:58:00,52.6,43.1,30.30,SW,226,0.0,0.0,70,0.00,,,0.01,Wunderground v.1.15,2013-10-08 23:58:00,
2013-10-08 20:00:00,52.4,42.9,30.31,SW,226,0.0,0.0,70,0.00,,,0.01,Wunderground v.1.15,2013-10-09 00:00:00,
2013-10-08 20:01:00,52.4,43.3,30.30,SW,226,0.0,0.0,71,0.00,,,0.01,Wunderground v.1.15,2013-10-09 00:01:00,
2013-10-08 20:03:00,52.2,43.4,30.31,SW,226,0.0,0.0,72,0.00,,,0.01,Wunderground v.1.15,2013-10-09 00:03:00,
2013-10-08 20:05:00,52.1,43.7,30.30,SW,226,0.0,0.0,73,0.00,,,0.01,Wunderground v.1.15,2013-10-09 00:05:00,
2013-10-08 20:06:00,52.1,43.7,30.31,SW,226,0.0,0.0,73,0.00,,,0.01,Wunderground v.1.15,2013-10-09 00:06:00,
2013-10-08 20:08:00,52.0,44.0,30.31,SW,226,0.0,0.0,74,0.00,,,0.01,Wunderground v.1.15,2013-10-09 00:08:00,
2013-10-08 20:10:00,52.0,44.0,30.31,SW,226,0.0,0.0,74,0.00,,,0.01,Wunderground v.1.15,2013-10-09 00:10:00,
2013-10-08 20:11:00,52.0,44.0,30.31,SW,226,0.0,0.0,74,0.00,,,0.01,Wunderground v.1.15,2013-10-09 00:11:00,
2013-10-08 20:13:00,51.8,44.1,30.31,SW,226,0.0,0.0,75,0.00,,,0.01,Wunderground v.1.15,2013-10-09 00:13:00,
2013-10-08 20:14:00,51.8,44.1,30.31,SW,226,0.0,0.0,75,0.00,,,0.01,Wunderground v.1.15,2013-10-09 00:14:00,
2013-10-08 20:15:00,51.8,44.1,30.31,SW,226,0.0,0.0,75,0.00,,,0.01,Wunderground v.1.15,2013-10-09 00:15:00,
2013-10-08 20:16:00,51.8,44.1,30.31,SW,226,0.0,0.0,75,0.00,,,0.01,Wunderground v.1.15,2013-10-09 00:16:00,
2013-10-08 20:17:00,51.7,43.7,30.31,SW,226,0.0,0.0,74,0.00,,,0.01,Wunderground v.1.15,2013-10-09 00:17:00,
2013-10-08 20:19:00,51.6,43.6,30.31,SW,226,0.0,0.0,74,0.00,,,0.01,Wunderground v.1.15,2013-10-09 00:19:00,
2013-10-08 20:20:00,51.5,43.5,30.31,SW,226,0.0,0.0,74,0.00,,,0.01,Wunderground v.1.15,2013-10-09 00:20:00,
2013-10-08 20:21:00,51.4,43.4,30.31,SW,226,0.0,0.0,74,0.00,,,0.01,Wunderground v.1.15,2013-10-09 00:21:00,
2013-10-08 20:22:00,51.3,43.3,30.31,SW,226,0.0,0.0,74,0.00,,,0.01,Wunderground v.1.15,2013-10-09 00:22:00,
2013-10-08 20:24:00,51.2,43.2,30.31,SW,226,0.0,0.0,74,0.00,,,0.01,Wunderground v.1.15,2013-10-09 00:24:00,
2013-10-08 20:25:00,51.1,43.1,30.31,SW,226,0.0,0.0,74,0.00,,,0.01,Wunderground v.1.15,2013-10-09 00:25:00,
2013-10-08 20:26:00,51.1,43.1,30.31,SW,226,0.0,0.0,74,0.00,,,0.01,Wunderground v.1.15,2013-10-09 00:26:00,
2013-10-08 20:27:00,51.0,43.0,30.31,SW,226,0.0,0.0,74,0.00,,,0.01,Wunderground v.1.15,2013-10-09 00:27:00,
2013-10-08 20:29:00,50.8,42.8,30.31,SW,226,0.0,0.0,74,0.00,,,0.01,Wunderground v.1.15,2013-10-09 00:29:00,
2013-10-08 20:30:00,50.7,43.1,30.31,SW,226,0.0,0.0,75,0.00,,,0.01,Wunderground v.1.15,2013-10-09 00:30:00,
2013-10-08 20:31:00,50.7,43.1,30.31,SW,226,0.0,0.0,75,0.00,,,0.01,Wunderground v.1.15,2013-10-09 00:31:00,
2013-10-08 20:33:00,50.5,42.9,30.31,SW,226,0.0,0.0,75,0.00,,,0.01,Wunderground v.1.15,2013-10-09 00:33:00,
2013-10-08 20:35:00,50.4,42.8,30.31,SW,226,0.0,0.0,75,0.00,,,0.01,Wunderground v.1.15,2013-10-09 00:35:00,
2013-10-08 20:36:00,50.3,42.7,30.31,SW,226,0.0,0.0,75,0.00,,,0.01,Wunderground v.1.15,2013-10-09 00:36:00,
2013-10-08 20:38:00,50.2,42.9,30.31,SW,226,0.0,0.0,76,0.00,,,0.01,Wunderground v.1.15,2013-10-09 00:38:00,
2013-10-08 20:39:00,50.2,42.9,30.31,SW,226,0.0,0.0,76,0.00,,,0.01,Wunderground v.1.15,2013-10-09 00:39:00,
2013-10-08 20:40:00,50.1,42.8,30.31,SW,226,0.0,0.0,76,0.00,,,0.01,Wunderground v.1.15,2013-10-09 00:40:00,
2013-10-08 20:41:00,50.1,42.8,30.31,SW,226,0.0,0.0,76,0.00,,,0.01,Wunderground v.1.15,2013-10-09 00:41:00,
2013-10-08 20:44:00,50.0,42.7,30.31,SW,226,0.0,0.0,76,0.00,,,0.01,Wunderground v.1.15,2013-10-09 00:44:00,
2013-10-08 20:45:00,49.9,42.6,30.31,SW,226,0.0,0.0,76,0.00,,,0.01,Wunderground v.1.15,2013-10-09 00:45:00,
2013-10-08 20:46:00,49.8,42.9,30.31,SW,226,0.0,0.0,77,0.00,,,0.01,Wunderground v.1.15,2013-10-09 00:46:00,
2013-10-08 20:47:00,49.8,42.9,30.31,SW,226,0.0,0.0,77,0.00,,,0.01,Wunderground v.1.15,2013-10-09 00:47:00,
2013-10-08 20:49:00,49.7,42.8,30.31,SW,226,0.0,0.0,77,0.00,,,0.01,Wunderground v.1.15,2013-10-09 00:49:00,
2013-10-08 20:50:00,49.6,42.7,30.31,SW,226,0.0,0.0,77,0.00,,,0.01,Wunderground v.1.15,2013-10-09 00:50:00,
2013-10-08 20:51:00,49.6,42.7,30.31,SW,226,0.0,0.0,77,0.00,,,0.01,Wunderground v.1.15,2013-10-09 00:51:00,
2013-10-08 20:52:00,49.5,42.6,30.31,SW,226,0.0,0.0,77,0.00,,,0.01,Wunderground v.1.15,2013-10-09 00:52:00,
2013-10-08 20:55:00,49.3,42.4,30.31,SW,226,0.0,0.0,77,0.00,,,0.01,Wunderground v.1.15,2013-10-09 00:55:00,
2013-10-08 20:56:00,49.2,42.3,30.31,SW,226,0.0,0.0,77,0.00,,,0.01,Wunderground v.1.15,2013-10-09 00:56:00,
2013-10-08 20:57:00,49.1,42.2,30.31,SW,226,0.0,0.0,77,0.00,,,0.01,Wunderground v.1.15,2013-10-09 00:57:00,
2013-10-08 21:00:00,48.8,41.9,30.31,SW,226,0.0,0.0,77,0.00,,,0.01,Wunderground v.1.15,2013-10-09 01:00:00,
2013-10-08 21:01:00,48.7,41.8,30.31,SW,226,0.0,0.0,77,0.00,,,0.01,Wunderground v.1.15,2013-10-09 01:01:00,
2013-10-08 21:02:00,48.7,42.1,30.32,SW,226,0.0,0.0,78,0.00,,,0.01,Wunderground v.1.15,2013-10-09 01:02:00,
2013-10-08 21:05:00,48.7,42.8,30.32,SW,226,0.0,0.0,80,0.00,,,0.01,Wunderground v.1.15,2013-10-09 01:05:00,
2013-10-08 21:06:00,48.7,42.8,30.32,SW,226,0.0,0.0,80,0.00,,,0.01,Wunderground v.1.15,2013-10-09 01:06:00,
2013-10-08 21:07:00,48.8,42.9,30.32,SW,226,0.0,0.0,80,0.00,,,0.01,Wunderground v.1.15,2013-10-09 01:07:00,
2013-10-08 21:10:00,49.1,43.8,30.32,SW,222,0.0,0.0,82,0.00,,,0.01,Wunderground v.1.15,2013-10-09 01:10:00,
2013-10-08 21:11:00,49.1,43.8,30.32,SW,222,0.0,0.0,82,0.00,,,0.01,Wunderground v.1.15,2013-10-09 01:11:00,
2013-10-08 21:12:00,49.2,43.9,30.32,SW,222,0.0,0.0,82,0.00,,,0.01,Wunderground v.1.15,2013-10-09 01:12:00,
2013-10-08 21:16:00,49.4,44.1,30.32,SW,222,0.0,0.0,82,0.00,,,0.01,Wunderground v.1.15,2013-10-09 01:16:00,
2013-10-08 21:17:00,49.4,44.1,30.32,SW,222,0.0,0.0,82,0.00,,,0.01,Wunderground v.1.15,2013-10-09 01:17:00,
2013-10-08 21:21:00,49.5,44.6,30.32,SW,222,0.0,0.0,83,0.00,,,0.01,Wunderground v.1.15,2013-10-09 01:21:00,
2013-10-08 21:22:00,49.5,44.6,30.32,SW,222,0.0,0.0,83,0.00,,,0.01,Wunderground v.1.15,2013-10-09 01:22:00,
2013-10-08 21:26:00,49.5,44.9,30.32,SW,222,0.0,0.0,84,0.00,,,0.01,Wunderground v.1.15,2013-10-09 01:26:00,
2013-10-08 21:27:00,49.5,44.9,30.32,SW,222,0.0,0.0,84,0.00,,,0.01,Wunderground v.1.15,2013-10-09 01:27:00,
2013-10-08 21:32:00,49.3,45.0,30.32,SW,222,0.0,0.0,85,0.00,,,0.01,Wunderground v.1.15,2013-10-09 01:32:00,
2013-10-08 21:33:00,49.3,45.0,30.32,SW,222,0.0,0.0,85,0.00,,,0.01,Wunderground v.1.15,2013-10-09 01:33:00,
2013-10-08 21:37:00,49.2,45.2,30.32,SW,222,0.0,0.0,86,0.00,,,0.01,Wunderground v.1.15,2013-10-09 01:37:00,
2013-10-08 21:38:00,49.2,45.2,30.32,SW,221,0.0,1.0,86,0.00,,,0.01,Wunderground v.1.15,2013-10-09 01:38:00,
2013-10-08 21:42:00,49.0,45.0,30.32,SW,222,0.0,0.0,86,0.00,,,0.01,Wunderground v.1.15,2013-10-09 01:42:00,
2013-10-08 21:43:00,48.9,44.9,30.32,SW,222,0.0,0.0,86,0.00,,,0.01,Wunderground v.1.15,2013-10-09 01:43:00,
2013-10-08 21:47:00,48.7,44.7,30.32,SW,222,0.0,0.0,86,0.00,,,0.01,Wunderground v.1.15,2013-10-09 01:47:00,
2013-10-08 21:48:00,48.6,44.6,30.32,SW,222,0.0,0.0,86,0.00,,,0.01,Wunderground v.1.15,2013-10-09 01:48:00,
2013-10-08 21:52:00,48.4,44.1,30.32,SW,222,0.0,1.0,85,0.00,,,0.01,Wunderground v.1.15,2013-10-09 01:52:00,
2013-10-08 21:53:00,48.4,44.1,30.32,SW,222,0.0,1.0,85,0.00,,,0.01,Wunderground v.1.15,2013-10-09 01:53:00,
2013-10-08 21:54:00,48.4,43.8,30.32,SW,222,1.0,1.0,84,0.00,,,0.01,Wunderground v.1.15,2013-10-09 01:54:00,
2013-10-08 21:55:00,48.4,44.1,30.32,SW,222,0.0,1.0,85,0.00,,,0.01,Wunderground v.1.15,2013-10-09 01:55:00,
2013-10-08 21:58:00,48.5,43.9,30.32,SW,222,0.0,1.0,84,0.00,,,0.01,Wunderground v.1.15,2013-10-09 01:58:00,
2013-10-08 21:59:00,48.5,43.9,30.32,SW,222,0.0,1.0,84,0.00,,,0.01,Wunderground v.1.15,2013-10-09 01:59:00,
2013-10-08 22:00:00,48.6,44.0,30.32,SW,221,0.0,0.0,84,0.00,,,0.01,Wunderground v.1.15,2013-10-09 02:00:00,
2013-10-08 22:03:00,48.6,43.7,30.32,SW,222,0.0,1.0,83,0.00,,,0.01,Wunderground v.1.15,2013-10-09 02:03:00,
2013-10-08 22:04:00,48.6,43.7,30.32,SW,222,0.0,1.0,83,0.00,,,0.01,Wunderground v.1.15,2013-10-09 02:04:00,
2013-10-08 22:05:00,48.6,43.7,30.32,SW,222,0.0,1.0,83,0.00,,,0.01,Wunderground v.1.15,2013-10-09 02:05:00,
2013-10-08 22:06:00,48.6,43.7,30.32,SW,222,0.0,1.0,83,0.00,,,0.01,Wunderground v.1.15,2013-10-09 02:06:00,
2013-10-08 22:08:00,48.6,43.7,30.32,SW,222,0.0,1.0,83,0.00,,,0.01,Wunderground v.1.15,2013-10-09 02:08:00,
2013-10-08 22:09:00,48.6,43.7,30.32,SW,222,0.0,1.0,83,0.00,,,0.01,Wunderground v.1.15,2013-10-09 02:09:00,
2013-10-08 22:10:00,48.6,43.7,30.32,SW,222,0.0,0.0,83,0.00,,,0.01,Wunderground v.1.15,2013-10-09 02:10:00,
2013-10-08 22:11:00,48.6,43.7,30.32,SW,222,0.0,0.0,83,0.00,,,0.01,Wunderground v.1.15,2013-10-09 02:11:00,
2013-10-08 22:13:00,48.5,43.6,30.32,SW,222,0.0,0.0,83,0.00,,,0.01,Wunderground v.1.15,2013-10-09 02:13:00,
2013-10-08 22:14:00,48.5,43.6,30.32,SW,222,0.0,0.0,83,0.00,,,0.01,Wunderground v.1.15,2013-10-09 02:14:00,
2013-10-08 22:16:00,48.4,43.5,30.33,SW,221,0.0,0.0,83,0.00,,,0.01,Wunderground v.1.15,2013-10-09 02:16:00,
2013-10-08 22:18:00,48.3,43.4,30.33,SW,222,0.0,0.0,83,0.00,,,0.01,Wunderground v.1.15,2013-10-09 02:18:00,
2013-10-08 22:19:00,48.3,43.4,30.33,SW,222,0.0,0.0,83,0.00,,,0.01,Wunderground v.1.15,2013-10-09 02:19:00,
2013-10-08 22:20:00,48.2,43.3,30.33,SW,222,0.0,0.0,83,0.00,,,0.01,Wunderground v.1.15,2013-10-09 02:20:00,
2013-10-08 22:21:00,48.2,43.6,30.33,SW,222,0.0,0.0,84,0.00,,,0.01,Wunderground v.1.15,2013-10-09 02:21:00,
2013-10-08 22:22:00,48.2,43.6,30.33,SW,221,0.0,0.0,84,0.00,,,0.01,Wunderground v.1.15,2013-10-09 02:22:00,
2013-10-08 22:24:00,48.2,43.6,30.32,SW,222,0.0,0.0,84,0.00,,,0.01,Wunderground v.1.15,2013-10-09 02:24:00,
2013-10-08 22:25:00,48.2,43.6,30.32,SW,221,0.0,0.0,84,0.00,,,0.01,Wunderground v.1.15,2013-10-09 02:25:00,
2013-10-08 22:26:00,48.1,43.5,30.32,SW,222,0.0,1.0,84,0.00,,,0.01,Wunderground v.1.15,2013-10-09 02:26:00,
2013-10-08 22:27:00,48.2,43.9,30.32,ENE,66,0.0,1.0,85,0.00,,,0.01,Wunderground v.1.15,2013-10-09 02:27:00,
2013-10-08 22:29:00,48.2,43.6,30.33,ENE,66,0.0,1.0,84,0.00,,,0.01,Wunderground v.1.15,2013-10-09 02:29:00,
2013-10-08 22:30:00,48.2,43.6,30.33,ENE,67,0.0,0.0,84,0.00,,,0.01,Wunderground v.1.15,2013-10-09 02:30:00,
2013-10-08 22:31:00,48.2,43.6,30.33,ENE,66,0.0,0.0,84,0.00,,,0.01,Wunderground v.1.15,2013-10-09 02:31:00,
2013-10-08 22:32:00,48.2,43.6,30.33,ENE,66,0.0,0.0,84,0.00,,,0.01,Wunderground v.1.15,2013-10-09 02:32:00,
2013-10-08 22:34:00,48.1,43.5,30.33,ENE,66,0.0,0.0,84,0.00,,,0.01,Wunderground v.1.15,2013-10-09 02:34:00,
2013-10-08 22:35:00,48.1,43.5,30.33,ENE,67,0.0,0.0,84,0.00,,,0.01,Wunderground v.1.15,2013-10-09 02:35:00,
2013-10-08 22:36:00,48.1,43.8,30.32,ENE,67,0.0,0.0,85,0.00,,,0.01,Wunderground v.1.15,2013-10-09 02:36:00,
2013-10-08 22:37:00,48.0,43.7,30.33,ENE,67,0.0,0.0,85,0.00,,,0.01,Wunderground v.1.15,2013-10-09 02:37:00,
2013-10-08 22:40:00,47.9,43.6,30.32,ENE,67,0.0,0.0,85,0.00,,,0.01,Wunderground v.1.15,2013-10-09 02:40:00,
2013-10-08 22:41:00,47.9,43.6,30.32,ENE,66,0.0,0.0,85,0.00,,,0.01,Wunderground v.1.15,2013-10-09 02:41:00,
2013-10-08 22:42:00,47.9,43.6,30.32,ENE,67,0.0,0.0,85,0.00,,,0.01,Wunderground v.1.15,2013-10-09 02:42:00,
2013-10-08 22:45:00,47.8,43.5,30.32,ENE,67,0.0,0.0,85,0.00,,,0.01,Wunderground v.1.15,2013-10-09 02:45:00,
2013-10-08 22:46:00,47.7,43.4,30.32,ENE,67,0.0,0.0,85,0.00,,,0.01,Wunderground v.1.15,2013-10-09 02:46:00,
2013-10-08 22:47:00,47.7,43.4,30.32,ENE,66,0.0,0.0,85,0.00,,,0.01,Wunderground v.1.15,2013-10-09 02:47:00,
2013-10-08 22:50:00,47.5,43.2,30.33,ENE,67,0.0,0.0,85,0.00,,,0.01,Wunderground v.1.15,2013-10-09 02:50:00,
2013-10-08 22:51:00,47.5,43.2,30.33,ENE,66,0.0,0.0,85,0.00,,,0.01,Wunderground v.1.15,2013-10-09 02:51:00,
2013-10-08 22:52:00,47.4,43.4,30.32,ENE,66,0.0,0.0,86,0.00,,,0.01,Wunderground v.1.15,2013-10-09 02:52:00,
2013-10-08 22:54:00,47.3,43.3,30.32,ENE,65,0.0,0.0,86,0.00,,,0.01,Wunderground v.1.15,2013-10-09 02:54:00,
2013-10-08 22:55:00,47.2,43.2,30.32,ENE,65,0.0,0.0,86,0.00,,,0.01,Wunderground v.1.15,2013-10-09 02:55:00,
2013-10-08 22:56:00,47.2,43.5,30.32,ENE,65,0.0,0.0,87,0.00,,,0.01,Wunderground v.1.15,2013-10-09 02:56:00,
2013-10-08 22:57:00,47.2,43.5,30.32,ENE,65,0.0,0.0,87,0.00,,,0.01,Wunderground v.1.15,2013-10-09 02:57:00,
2013-10-08 22:59:00,47.1,43.4,30.33,ENE,65,0.0,0.0,87,0.00,,,0.01,Wunderground v.1.15,2013-10-09 02:59:00,
2013-10-08 23:00:00,47.0,43.3,30.33,ENE,65,0.0,0.0,87,0.00,,,0.01,Wunderground v.1.15,2013-10-09 03:00:00,
2013-10-08 23:02:00,46.9,43.2,30.33,ENE,65,0.0,0.0,87,0.00,,,0.01,Wunderground v.1.15,2013-10-09 03:02:00,
2013-10-08 23:04:00,46.8,43.1,30.33,ENE,65,0.0,0.0,87,0.00,,,0.01,Wunderground v.1.15,2013-10-09 03:04:00,
2013-10-08 23:05:00,46.8,43.1,30.33,ENE,65,0.0,0.0,87,0.00,,,0.01,Wunderground v.1.15,2013-10-09 03:05:00,
2013-10-08 23:07:00,46.7,43.0,30.33,ENE,65,0.0,0.0,87,0.00,,,0.01,Wunderground v.1.15,2013-10-09 03:07:00,
2013-10-08 23:08:00,46.7,43.3,30.33,ENE,65,0.0,0.0,88,0.00,,,0.01,Wunderground v.1.15,2013-10-09 03:08:00,
2013-10-08 23:10:00,46.6,43.2,30.33,ENE,65,0.0,0.0,88,0.00,,,0.01,Wunderground v.1.15,2013-10-09 03:10:00,
2013-10-08 23:12:00,46.5,43.1,30.33,ENE,65,0.0,0.0,88,0.00,,,0.01,Wunderground v.1.15,2013-10-09 03:12:00,
2013-10-08 23:13:00,46.5,43.1,30.33,ENE,65,0.0,0.0,88,0.00,,,0.01,Wunderground v.1.15,2013-10-09 03:13:00,
2013-10-08 23:15:00,46.4,43.0,30.33,ENE,65,0.0,0.0,88,0.00,,,0.01,Wunderground v.1.15,2013-10-09 03:15:00,
2013-10-08 23:16:00,46.3,43.2,30.33,ENE,65,0.0,0.0,89,0.00,,,0.01,Wunderground v.1.15,2013-10-09 03:16:00,
2013-10-08 23:17:00,46.3,43.2,30.33,ENE,65,0.0,0.0,89,0.00,,,0.01,Wunderground v.1.15,2013-10-09 03:17:00,
2013-10-08 23:18:00,46.2,43.1,30.33,ENE,65,0.0,0.0,89,0.00,,,0.01,Wunderground v.1.15,2013-10-09 03:18:00,
2013-10-08 23:20:00,46.2,43.1,30.33,ENE,65,0.0,0.0,89,0.00,,,0.01,Wunderground v.1.15,2013-10-09 03:20:00,
2013-10-08 23:21:00,46.1,43.0,30.33,ENE,65,0.0,0.0,89,0.00,,,0.01,Wunderground v.1.15,2013-10-09 03:21:00,
2013-10-08 23:22:00,46.1,43.0,30.33,ENE,65,0.0,0.0,89,0.00,,,0.01,Wunderground v.1.15,2013-10-09 03:22:00,
2013-10-08 23:23:00,46.1,43.0,30.33,ENE,65,0.0,0.0,89,0.00,,,0.01,Wunderground v.1.15,2013-10-09 03:23:00,
2013-10-08 23:24:00,46.1,43.0,30.33,ENE,65,0.0,0.0,89,0.00,,,0.01,Wunderground v.1.15,2013-10-09 03:24:00,
2013-10-08 23:25:00,46.0,42.9,30.33,ENE,65,0.0,0.0,89,0.00,,,0.01,Wunderground v.1.15,2013-10-09 03:25:00,
2013-10-08 23:26:00,46.0,42.9,30.33,ENE,65,0.0,0.0,89,0.00,,,0.01,Wunderground v.1.15,2013-10-09 03:26:00,
2013-10-08 23:27:00,46.0,43.2,30.33,ENE,65,0.0,0.0,90,0.00,,,0.01,Wunderground v.1.15,2013-10-09 03:27:00,
2013-10-08 23:28:00,45.9,43.1,30.33,ENE,65,0.0,0.0,90,0.00,,,0.01,Wunderground v.1.15,2013-10-09 03:28:00,
2013-10-08 23:29:00,45.9,43.1,30.33,ENE,65,0.0,0.0,90,0.00,,,0.01,Wunderground v.1.15,2013-10-09 03:29:00,
2013-10-08 23:30:00,45.8,43.0,30.33,ENE,65,0.0,0.0,90,0.00,,,0.01,Wunderground v.1.15,2013-10-09 03:30:00,
2013-10-08 23:32:00,45.7,42.9,30.33,ENE,65,0.0,0.0,90,0.00,,,0.01,Wunderground v.1.15,2013-10-09 03:32:00,
2013-10-08 23:33:00,45.7,42.9,30.33,ENE,65,0.0,0.0,90,0.00,,,0.01,Wunderground v.1.15,2013-10-09 03:33:00,
2013-10-08 23:35:00,45.5,42.7,30.33,ENE,65,0.0,0.0,90,0.00,,,0.01,Wunderground v.1.15,2013-10-09 03:35:00,
2013-10-08 23:37:00,45.4,42.6,30.33,ENE,65,0.0,0.0,90,0.00,,,0.01,Wunderground v.1.15,2013-10-09 03:37:00,
2013-10-08 23:38:00,45.4,42.6,30.33,ENE,65,0.0,0.0,90,0.00,,,0.01,Wunderground v.1.15,2013-10-09 03:38:00,
2013-10-08 23:41:00,45.2,42.4,30.33,ENE,65,0.0,0.0,90,0.00,,,0.01,Wunderground v.1.15,2013-10-09 03:41:00,
2013-10-08 23:42:00,45.2,42.4,30.33,ENE,65,0.0,0.0,90,0.00,,,0.01,Wunderground v.1.15,2013-10-09 03:42:00,
2013-10-08 23:43:00,45.1,42.3,30.33,ENE,65,0.0,0.0,90,0.00,,,0.01,Wunderground v.1.15,2013-10-09 03:43:00,
2013-10-08 23:44:00,45.1,42.3,30.33,ENE,65,0.0,0.0,90,0.00,,,0.01,Wunderground v.1.15,2013-10-09 03:44:00,
2013-10-08 23:47:00,45.0,42.5,30.33,ENE,65,0.0,0.0,91,0.00,,,0.01,Wunderground v.1.15,2013-10-09 03:47:00,
2013-10-08 23:48:00,45.0,42.5,30.33,ENE,65,0.0,0.0,91,0.00,,,0.01,Wunderground v.1.15,2013-10-09 03:48:00,
2013-10-08 23:49:00,45.0,42.5,30.33,ENE,65,0.0,0.0,91,0.00,,,0.01,Wunderground v.1.15,2013-10-09 03:49:00,
2013-10-08 23:52:00,45.0,42.8,30.33,ENE,65,0.0,0.0,92,0.00,,,0.01,Wunderground v.1.15,2013-10-09 03:52:00,
2013-10-08 23:53:00,44.9,42.7,30.33,ENE,65,0.0,0.0,92,0.00,,,0.01,Wunderground v.1.15,2013-10-09 03:53:00,
2013-10-08 23:54:00,44.9,42.7,30.33,ENE,65,0.0,0.0,92,0.00,,,0.01,Wunderground v.1.15,2013-10-09 03:54:00,
2013-10-08 23:57:00,44.8,42.6,30.33,ENE,65,0.0,0.0,92,0.00,,,0.01,Wunderground v.1.15,2013-10-09 03:57:00,
2013-10-08 23:58:00,44.8,42.6,30.33,ENE,65,0.0,0.0,92,0.00,,,0.01,Wunderground v.1.15,2013-10-09 03:58:00,
2013-10-08 23:59:00,44.7,42.5,30.33,ENE,65,0.0,0.0,92,0.00,,,0.01,Wunderground v.1.15,2013-10-09 03:59:00,